M I D A S
Marine Information and Data Acquisition System
Tripno 2295 of the Zeeleeuw from 2012-04-24 10:33:03 to 2012-04-24 16:19:00
Back to CruiseResearch ActivitiesStationsMapUnderway DataData graphs

EquipmentUnitsComment
TimeDGPSUTC
LatitudeDGPSDM.mWGS84
LongitudeDGPSDM.mWGS84
TemperatureSBE03/SBE38deg celciusITS90
ConductivitySBE21S/mITS90
SalinitySBE21 Practical Salinity Units
ChlorophylAChelsea fluorimeterg/lCalibrated in Aceton
Missing or incorrect values are displayed as -999
Sea surface data collected by the RV Zeeleeuw from 2012-04-24 10:14:09 to 2012-04-24 16:22:50
                                                                                    Next 1000 lines
Time Latitude Longitude Temperature Conductivity Salinity ChlorophylA
2012-04-24 10:14:19 51°13.636 2°56.019 16.8566 1.053203 6.684619 -2.458615
2012-04-24 10:14:25 51°13.636 2°56.019 16.9073 1.017252 6.438059 -2.458615
2012-04-24 10:14:29 51°13.636 2°56.018 16.8986 1.029201 6.518247 -2.458615
2012-04-24 10:14:34 51°13.636 2°56.019 16.8853 1.029201 6.518247 -2.458615
2012-04-24 10:14:39 51°13.636 2°56.019 16.9258 1.040635 6.595216 -2.458615
2012-04-24 10:14:45 51°13.636 2°56.019 16.9326 1.019003 6.447292 -2.458615
2012-04-24 10:14:49 51°13.636 2°56.019 16.9558 1.02611 6.495744 -2.458615
2012-04-24 10:14:54 51°13.636 2°56.019 16.9479 1.026832 6.501136 -2.458615
2012-04-24 10:14:59 51°13.636 2°56.019 16.9638 1.025698 6.493882 -2.458615
2012-04-24 10:15:05 51°13.636 2°56.019 16.9701 1.025698 6.493882 -2.458615
2012-04-24 10:15:10 51°13.636 2°56.019 16.9798 1.024977 6.489675 -2.458615
2012-04-24 10:15:14 51°13.636 2°56.018 16.9755 1.023844 6.482302 -2.458615
2012-04-24 10:15:19 51°13.636 2°56.018 16.9722 1.022814 6.475631 -2.458615
2012-04-24 10:15:24 51°13.636 2°56.018 16.97 1.01993 6.4562 -2.458615
2012-04-24 10:15:30 51°13.636 2°56.018 16.9716 1.018385 6.445666 -2.458615
2012-04-24 10:15:34 51°13.636 2°56.018 16.9758 1.018385 6.445666 -2.458615
2012-04-24 10:15:39 51°13.636 2°56.018 16.973 1.018797 6.448475 -2.458615
2012-04-24 10:15:44 51°13.636 2°56.019 16.9768 1.020651 6.461116 -2.458615
2012-04-24 10:15:49 51°13.636 2°56.019 16.9734 1.020033 6.456902 -2.458615
2012-04-24 10:15:54 51°13.636 2°56.019 16.9696 1.021784 6.468843 -2.458615
2012-04-24 10:15:59 51°13.636 2°56.018 16.9672 1.02096 6.463341 -2.458615
2012-04-24 10:16:04 51°13.636 2°56.018 16.9626 1.02096 6.463341 -2.458615
2012-04-24 10:16:10 51°13.636 2°56.018 16.9591 1.019827 6.455733 -2.458615
2012-04-24 10:16:15 51°13.636 2°56.018 16.9576 1.021269 6.465567 -2.458615
2012-04-24 10:16:19 51°13.636 2°56.018 16.9566 1.021063 6.46428 -2.458615
2012-04-24 10:16:25 51°13.636 2°56.018 16.9567 1.020548 6.460767 -2.458615
2012-04-24 10:16:30 51°13.637 2°56.018 16.9583 1.021475 6.467089 -2.458615
2012-04-24 10:16:35 51°13.637 2°56.018 16.9559 1.021475 6.467089 -2.458615
2012-04-24 10:16:40 51°13.637 2°56.018 16.9526 1.02199 6.47072 -2.458615
2012-04-24 10:16:45 51°13.637 2°56.018 16.9534 1.021887 6.470135 -2.458615
2012-04-24 10:16:50 51°13.637 2°56.018 16.9524 1.021475 6.467325 -2.458615
2012-04-24 10:16:55 51°13.637 2°56.018 16.9515 1.02302 6.477863 -2.458615
2012-04-24 10:16:59 51°13.637 2°56.018 16.9491 1.022505 6.474351 -2.458615
2012-04-24 10:17:05 51°13.637 2°56.018 16.9486 1.022505 6.474351 -2.458615
2012-04-24 10:17:10 51°13.637 2°56.018 16.9461 1.021887 6.470253 -2.458615
2012-04-24 10:17:15 51°13.637 2°56.018 16.9447 1.022505 6.474469 -2.458615
2012-04-24 10:17:19 51°13.637 2°56.018 16.9445 1.021784 6.469669 -2.458615
2012-04-24 10:17:25 51°13.637 2°56.018 16.9452 1.021269 6.466156 -2.458615
2012-04-24 10:17:30 51°13.637 2°56.018 16.9445 1.021681 6.468966 -2.458615
2012-04-24 10:17:35 51°13.637 2°56.018 16.9434 1.021681 6.468966 -2.458615
2012-04-24 10:17:39 51°13.637 2°56.018 16.9419 1.021475 6.467561 -2.458615
2012-04-24 10:17:45 51°13.637 2°56.018 16.9436 1.021166 6.465454 -2.458615
2012-04-24 10:17:50 51°13.637 2°56.018 16.9456 1.020754 6.462526 -2.458615
2012-04-24 10:17:55 51°13.637 2°56.018 16.9484 1.02096 6.463931 -2.458615
2012-04-24 10:17:59 51°13.637 2°56.018 16.9524 1.020136 6.458311 -2.458615
2012-04-24 10:18:05 51°13.637 2°56.018 16.9543 1.020136 6.458311 -2.458615
2012-04-24 10:18:10 51°13.636 2°56.018 16.9527 1.02096 6.463931 -2.458615
2012-04-24 10:18:15 51°13.636 2°56.018 16.955 1.021269 6.466038 -2.458615
2012-04-24 10:18:19 51°13.636 2°56.018 16.9535 1.019827 6.456204 -2.458615
2012-04-24 10:18:24 51°13.635 2°56.018 16.9539 1.01993 6.456907 -2.458615
2012-04-24 10:18:29 51°13.635 2°56.018 16.9553 1.018797 6.449181 -2.458615
2012-04-24 10:18:34 51°13.635 2°56.018 16.9548 1.018797 6.449181 -2.458615
2012-04-24 10:18:39 51°13.636 2°56.018 16.954 1.019106 6.451405 -2.458615
2012-04-24 10:18:44 51°13.636 2°56.018 16.9539 1.019827 6.456322 -2.458615
2012-04-24 10:18:50 51°13.636 2°56.018 16.9532 1.020136 6.458429 -2.458615
2012-04-24 10:18:54 51°13.636 2°56.018 16.9528 1.019724 6.45562 -2.458615
2012-04-24 10:18:59 51°13.636 2°56.018 16.9537 1.019312 6.45281 -2.458615
2012-04-24 10:19:04 51°13.636 2°56.018 16.9514 1.019312 6.45281 -2.458615
2012-04-24 10:19:09 51°13.637 2°56.018 16.9521 1.020136 6.458429 -2.458615
2012-04-24 10:19:14 51°13.637 2°56.018 16.9514 1.019518 6.454215 -2.458615
2012-04-24 10:19:19 51°13.637 2°56.019 16.9519 1.019827 6.456322 -2.458615
2012-04-24 10:19:24 51°13.637 2°56.019 16.9577 1.019518 6.454333 -2.458615
2012-04-24 10:19:29 51°13.637 2°56.019 16.9577 1.019106 6.451405 -2.458615
2012-04-24 10:19:35 51°13.636 2°56.019 16.9521 1.019106 6.451405 -2.458615
2012-04-24 10:19:40 51°13.636 2°56.019 16.9494 1.020136 6.458429 -2.458615
2012-04-24 10:19:44 51°13.636 2°56.019 16.9486 1.019827 6.45644 -2.458615
2012-04-24 10:19:50 51°13.636 2°56.019 16.9467 1.020651 6.462059 -2.458615
2012-04-24 10:19:54 51°13.636 2°56.019 16.9465 1.02096 6.464049 -2.458615
2012-04-24 10:19:59 51°13.637 2°56.019 16.9457 1.021578 6.468382 -2.458615
2012-04-24 10:20:04 51°13.637 2°56.019 16.945 1.021578 6.468382 -2.458615
2012-04-24 10:20:09 51°13.636 2°56.019 16.9445 1.02199 6.471192 -2.458615
2012-04-24 10:20:15 51°13.636 2°56.019 16.9424 1.021784 6.469787 -2.458615
2012-04-24 10:20:20 51°13.636 2°56.019 16.939 1.022608 6.475408 -2.458615
2012-04-24 10:20:24 51°13.636 2°56.019 16.9319 1.022299 6.4733 -2.458615
2012-04-24 10:20:29 51°13.636 2°56.019 16.9246 1.023741 6.483137 -2.458615
2012-04-24 10:20:34 51°13.636 2°56.019 16.9313 1.023741 6.483137 -2.458615
2012-04-24 10:20:39 51°13.636 2°56.019 16.9339 1.022299 6.473418 -2.458615
2012-04-24 10:20:44 51°13.636 2°56.019 16.9341 1.022402 6.474002 -2.458615
2012-04-24 10:20:49 51°13.636 2°56.019 16.9329 1.022711 6.47611 -2.458615
2012-04-24 10:20:53 51°13.636 2°56.019 16.9373 1.022505 6.474705 -2.458615
2012-04-24 10:21:00 51°13.636 2°56.019 16.9325 1.023432 6.481029 -2.458615
2012-04-24 10:21:05 51°13.636 2°56.019 16.9337 1.023432 6.481029 -2.458615
2012-04-24 10:21:09 51°13.636 2°56.019 16.9357 1.023432 6.481029 -2.458615
2012-04-24 10:21:14 51°13.636 2°56.019 16.9331 1.023432 6.481029 -2.458615
2012-04-24 10:21:19 51°13.636 2°56.019 16.9382 1.023226 6.479623 -2.458615
2012-04-24 10:21:24 51°13.636 2°56.019 16.9346 1.023432 6.481029 -2.458615
2012-04-24 10:21:29 51°13.636 2°56.019 16.9376 1.023535 6.48185 -2.458615
2012-04-24 10:21:33 51°13.636 2°56.019 16.9413 1.023535 6.48185 -2.458615
2012-04-24 10:21:38 51°13.636 2°56.019 16.9406 1.023329 6.480444 -2.458615
2012-04-24 10:21:43 51°13.636 2°56.019 16.9413 1.023844 6.483958 -2.458615
2012-04-24 10:21:48 51°13.636 2°56.019 16.9449 1.023535 6.48185 -2.458615
2012-04-24 10:21:53 51°13.636 2°56.019 16.9441 1.02508 6.49239 -2.458615
2012-04-24 10:21:59 51°13.636 2°56.019 16.9449 1.025287 6.493796 -2.458615
2012-04-24 10:22:04 51°13.637 2°56.019 16.9435 1.025287 6.493796 -2.458615
2012-04-24 10:22:09 51°13.637 2°56.019 16.9449 1.02508 6.49239 -2.458615
2012-04-24 10:22:14 51°13.637 2°56.019 16.9475 1.022196 6.472715 -2.458615
2012-04-24 10:22:20 51°13.637 2°56.019 16.9483 1.022196 6.472715 -2.458615
2012-04-24 10:22:24 51°13.637 2°56.019 16.9523 1.019621 6.455035 -2.458615
2012-04-24 10:22:29 51°13.637 2°56.019 16.9544 1.020445 6.460654 -2.458615
2012-04-24 10:22:34 51°13.637 2°56.019 16.9543 1.020445 6.460654 -2.458615
2012-04-24 10:22:39 51°13.637 2°56.019 16.9556 1.021372 6.466977 -2.458615
2012-04-24 10:22:44 51°13.637 2°56.019 16.9542 1.02096 6.464167 -2.458615
2012-04-24 10:22:49 51°13.637 2°56.019 16.9538 1.022917 6.477515 -2.458615
2012-04-24 10:22:54 51°13.637 2°56.019 16.9559 1.02199 6.47131 -2.458615
2012-04-24 10:23:00 51°13.637 2°56.019 16.9545 1.020136 6.458665 -2.458615
2012-04-24 10:23:05 51°13.637 2°56.019 16.9521 1.020136 6.458665 -2.458615
2012-04-24 10:23:10 51°13.637 2°56.019 16.9483 1.022299 6.473418 -2.458615
2012-04-24 10:23:14 51°13.637 2°56.019 16.9464 1.02302 6.478336 -2.458615
2012-04-24 10:23:20 51°13.637 2°56.019 16.9412 1.023329 6.480444 -2.458615
2012-04-24 10:23:25 51°13.637 2°56.019 16.9423 1.02199 6.47131 -2.458615
2012-04-24 10:23:30 51°13.637 2°56.019 16.9407 1.021784 6.469905 -2.458615
2012-04-24 10:23:34 51°13.637 2°56.019 16.9402 1.021784 6.469905 -2.458615
2012-04-24 10:23:40 51°13.637 2°56.019 16.9433 1.02096 6.464285 -2.458615
2012-04-24 10:23:45 51°13.637 2°56.019 16.9483 1.019106 6.451641 -2.458615
2012-04-24 10:23:50 51°13.637 2°56.019 16.9508 1.01787 6.443213 -2.458615
2012-04-24 10:23:54 51°13.637 2°56.019 16.9509 1.019724 6.455855 -2.458615
2012-04-24 10:23:59 51°13.637 2°56.019 16.9538 1.0189 6.450236 -2.458615
2012-04-24 10:24:05 51°13.637 2°56.019 16.9552 1.0189 6.450236 -2.458615
2012-04-24 10:24:10 51°13.637 2°56.018 16.9547 1.019518 6.45445 -2.458615
2012-04-24 10:24:14 51°13.637 2°56.018 16.9524 1.020651 6.462059 -2.458615
2012-04-24 10:24:19 51°13.637 2°56.018 16.948 1.02302 6.478336 -2.458615
2012-04-24 10:24:24 51°13.636 2°56.018 16.9475 1.025183 6.493093 -2.458615
2012-04-24 10:24:30 51°13.635 2°56.018 16.9497 1.024359 6.487471 -2.458615
2012-04-24 10:24:34 51°13.635 2°56.018 16.9491 1.024359 6.487471 -2.458615
2012-04-24 10:24:39 51°13.635 2°56.018 16.9454 1.024874 6.491103 -2.458615
2012-04-24 10:24:45 51°13.635 2°56.018 16.947 1.024565 6.488877 -2.458615
2012-04-24 10:24:50 51°13.635 2°56.018 16.9516 1.022814 6.476931 -2.458615
2012-04-24 10:24:55 51°13.635 2°56.018 16.9537 1.022505 6.474823 -2.458615
2012-04-24 10:24:59 51°13.635 2°56.018 16.9548 1.022093 6.472013 -2.458615
2012-04-24 10:25:05 51°13.635 2°56.018 16.953 1.022093 6.472013 -2.458615
2012-04-24 10:25:10 51°13.635 2°56.018 16.9529 1.021269 6.466392 -2.458615
2012-04-24 10:25:15 51°13.635 2°56.018 16.9527 1.022814 6.476931 -2.458615
2012-04-24 10:25:19 51°13.636 2°56.018 16.9543 1.023432 6.481147 -2.458615
2012-04-24 10:25:25 51°13.636 2°56.018 16.9488 1.024153 6.486184 -2.458615
2012-04-24 10:25:29 51°13.636 2°56.018 16.949 1.025596 6.496023 -2.458615
2012-04-24 10:25:34 51°13.636 2°56.018 16.9507 1.025596 6.496023 -2.458615
2012-04-24 10:25:39 51°13.636 2°56.017 16.9482 1.023535 6.481968 -2.458615
2012-04-24 10:25:44 51°13.636 2°56.017 16.9463 1.02508 6.492509 -2.458615
2012-04-24 10:25:49 51°13.636 2°56.017 16.9449 1.025699 6.496726 -2.458615
2012-04-24 10:25:55 51°13.636 2°56.017 16.9506 1.024668 6.489698 -2.458615
2012-04-24 10:26:00 51°13.636 2°56.017 16.957 1.021681 6.46932 -2.458615
2012-04-24 10:26:04 51°13.636 2°56.017 16.9587 1.021681 6.46932 -2.458615
2012-04-24 10:26:09 51°13.636 2°56.017 16.9596 1.022608 6.475644 -2.458615
2012-04-24 10:26:14 51°13.636 2°56.017 16.9614 1.023226 6.47986 -2.458615
2012-04-24 10:26:19 51°13.636 2°56.017 16.9597 1.021681 6.46932 -2.458615
2012-04-24 10:26:24 51°13.636 2°56.017 16.9548 1.025183 6.493212 -2.458615
2012-04-24 10:26:29 51°13.636 2°56.017 16.9492 1.025699 6.496726 -2.458615
2012-04-24 10:26:34 51°13.636 2°56.017 16.9479 1.025699 6.496726 -2.458615
2012-04-24 10:26:39 51°13.636 2°56.017 16.9509 1.024462 6.488292 -2.458615
2012-04-24 10:26:44 51°13.636 2°56.017 16.9458 1.025493 6.49532 -2.458615
2012-04-24 10:26:49 51°13.636 2°56.017 16.9451 1.026317 6.501061 -2.458615
2012-04-24 10:26:55 51°13.636 2°56.017 16.9483 1.024462 6.488411 -2.458615
2012-04-24 10:27:00 51°13.636 2°56.017 16.9499 1.025287 6.494033 -2.458615
2012-04-24 10:27:05 51°13.636 2°56.017 16.9563 1.025287 6.494033 -2.458615
2012-04-24 10:27:09 51°13.636 2°56.017 16.9635 1.021475 6.468033 -2.458615
2012-04-24 10:27:15 51°13.636 2°56.017 16.9574 1.022711 6.476465 -2.458615
2012-04-24 10:27:20 51°13.636 2°56.017 16.9607 1.024359 6.487708 -2.458615
2012-04-24 10:27:24 51°13.636 2°56.017 16.9617 1.024668 6.489816 -2.458615
2012-04-24 10:27:29 51°13.637 2°56.017 16.9619 1.02405 6.4856 -2.458615
2012-04-24 10:27:34 51°13.637 2°56.017 16.9625 1.02405 6.4856 -2.458615
2012-04-24 10:27:39 51°13.637 2°56.017 16.9615 1.025184 6.49333 -2.458615
2012-04-24 10:27:44 51°13.637 2°56.018 16.9602 1.025905 6.49825 -2.458615
2012-04-24 10:27:50 51°13.637 2°56.018 16.9589 1.024256 6.487005 -2.458615
2012-04-24 10:27:54 51°13.637 2°56.018 16.9613 1.023844 6.484194 -2.458615
2012-04-24 10:27:59 51°13.637 2°56.018 16.9648 1.023226 6.479978 -2.458615
2012-04-24 10:28:05 51°13.637 2°56.018 16.9613 1.023226 6.479978 -2.458615
2012-04-24 10:28:09 51°13.636 2°56.018 16.9585 1.025596 6.496141 -2.458615
2012-04-24 10:28:14 51°13.635 2°56.018 16.9586 1.023947 6.484897 -2.458615
2012-04-24 10:28:19 51°13.635 2°56.018 16.9564 1.02745 6.508794 -2.458615
2012-04-24 10:28:24 51°13.636 2°56.018 16.9568 1.026111 6.499774 -2.458615
2012-04-24 10:28:29 51°13.636 2°56.018 16.9544 1.026214 6.500359 -2.458615
2012-04-24 10:28:35 51°13.636 2°56.018 16.9582 1.026214 6.500359 -2.458615
2012-04-24 10:28:39 51°13.636 2°56.018 16.9564 1.023535 6.482086 -2.458615
2012-04-24 10:28:45 51°13.636 2°56.018 16.9557 1.025699 6.496844 -2.458615
2012-04-24 10:28:50 51°13.636 2°56.018 16.9546 1.025184 6.49333 -2.458615
2012-04-24 10:28:55 51°13.636 2°56.018 16.9557 1.022814 6.477167 -2.458615
2012-04-24 10:28:59 51°13.636 2°56.018 16.9556 1.02745 6.508794 -2.458615
2012-04-24 10:29:05 51°13.636 2°56.018 16.9495 1.02745 6.508794 -2.458615
2012-04-24 10:29:10 51°13.636 2°56.018 16.9488 1.025802 6.497547 -2.458615
2012-04-24 10:29:15 51°13.635 2°56.018 16.9503 1.026935 6.505279 -2.458615
2012-04-24 10:29:19 51°13.635 2°56.018 16.9449 1.026214 6.500359 -2.458615
2012-04-24 10:29:24 51°13.635 2°56.018 16.9518 1.02508 6.492627 -2.458615
2012-04-24 10:29:29 51°13.636 2°56.018 16.9523 1.023432 6.481383 -2.458615
2012-04-24 10:29:35 51°13.636 2°56.018 16.9538 1.023432 6.481383 -2.458615
2012-04-24 10:29:39 51°13.636 2°56.018 16.943 1.025802 6.497547 -2.458615
2012-04-24 10:29:44 51°13.636 2°56.018 16.9295 1.027038 6.5061 -2.458615
2012-04-24 10:29:49 51°13.636 2°56.018 16.9359 1.027141 6.506685 -2.458615
2012-04-24 10:29:54 51°13.636 2°56.018 16.9486 1.027656 6.510318 -2.458615
2012-04-24 10:29:59 51°13.636 2°56.018 16.9487 1.029407 6.522151 -2.458615
2012-04-24 10:30:05 51°13.635 2°56.018 16.9454 1.029407 6.522151 -2.458615
2012-04-24 10:30:09 51°13.636 2°56.018 16.9734 1.023844 6.484194 -2.458615
2012-04-24 10:30:15 51°13.636 2°56.018 16.9578 1.025287 6.494033 -2.458615
2012-04-24 10:30:20 51°13.636 2°56.018 16.9609 1.028686 6.517229 -2.458615
2012-04-24 10:30:24 51°13.635 2°56.018 16.9588 1.026626 6.50317 -2.458615
2012-04-24 10:30:30 51°13.635 2°56.018 16.9571 1.028068 6.513011 -2.458615
2012-04-24 10:30:34 51°13.635 2°56.018 16.9509 1.028068 6.513011 -2.458615
2012-04-24 10:30:39 51°13.635 2°56.018 16.9579 1.032497 6.543366 -2.458615
2012-04-24 10:30:44 51°13.636 2°56.018 16.9535 1.025287 6.494033 -2.458615
2012-04-24 10:30:50 51°13.636 2°56.018 16.9624 1.027141 6.506685 -2.458615
2012-04-24 10:30:54 51°13.636 2°56.018 16.9637 1.02745 6.508794 -2.458615
2012-04-24 10:30:59 51°13.636 2°56.017 16.9677 1.023638 6.482789 -2.458615
2012-04-24 10:31:04 51°13.636 2°56.017 16.9666 1.023638 6.482789 -2.458615
2012-04-24 10:31:10 51°13.636 2°56.017 16.9704 1.024359 6.487708 -2.458615
2012-04-24 10:31:15 51°13.636 2°56.017 16.9742 1.027759 6.510784 -2.458615
2012-04-24 10:31:19 51°13.636 2°56.017 16.9919 1.026317 6.501061 -2.458615
2012-04-24 10:31:24 51°13.636 2°56.017 16.9716 1.029304 6.521448 -2.458615
2012-04-24 10:31:29 51°13.636 2°56.017 16.9716 1.025905 6.498131 -2.458615
2012-04-24 10:31:34 51°13.636 2°56.017 16.9761 1.025905 6.498131 -2.458615
2012-04-24 10:31:39 51°13.635 2°56.017 17.0028 1.02302 6.478454 -2.458615
2012-04-24 10:31:44 51°13.635 2°56.017 17.0027 1.024977 6.491806 -2.458615
2012-04-24 10:31:49 51°13.636 2°56.017 16.979 1.027553 6.509378 -2.458615
2012-04-24 10:31:54 51°13.636 2°56.017 16.9876 1.024565 6.488995 -2.458615
2012-04-24 10:31:59 51°13.636 2°56.018 16.9757 1.026317 6.500943 -2.458615
2012-04-24 10:32:05 51°13.636 2°56.018 16.9743 1.026317 6.500943 -2.458615
2012-04-24 10:32:09 51°13.636 2°56.018 16.9761 1.023432 6.481265 -2.458615
2012-04-24 10:32:15 51°13.636 2°56.018 16.9767 1.025183 6.493212 -2.458615
2012-04-24 10:32:20 51°13.636 2°56.018 16.9578 1.035278 6.562118 -2.458615
2012-04-24 10:32:25 51°13.636 2°56.018 16.9554 1.038369 6.583344 -2.458615
2012-04-24 10:32:29 51°13.636 2°56.018 16.9437 1.03909 6.58839 -2.458615
2012-04-24 10:32:35 51°13.636 2°56.018 16.9366 1.03909 6.58839 -2.458615
2012-04-24 10:32:40 51°13.636 2°56.018 16.9992 1.03909 6.58839 -2.458615
2012-04-24 10:32:45 51°13.635 2°56.018 16.9634 1.030437 6.529182 -2.458615
2012-04-24 10:32:49 51°13.635 2°56.018 16.9735 1.034557 6.557313 -2.458615
2012-04-24 10:32:55 51°13.636 2°56.018 16.9852 1.03466 6.558136 -2.458615
2012-04-24 10:33:00 51°13.636 2°56.017 16.9841 1.03363 6.550983 -2.458615
2012-04-24 10:33:05 51°13.636 2°56.017 16.983 1.03363 6.550983 -2.458615
2012-04-24 10:33:09 51°13.636 2°56.017 16.9822 1.033733 6.551686 -2.458615
2012-04-24 10:33:14 51°13.636 2°56.017 16.9831 1.034351 6.555907 -2.458615
2012-04-24 10:33:19 51°13.636 2°56.017 16.9887 1.032703 6.544534 -2.458615
2012-04-24 10:33:24 51°13.636 2°56.017 16.9863 1.031982 6.53973 -2.458615
2012-04-24 10:33:29 51°13.636 2°56.017 16.9839 1.035587 6.564348 -2.458615
2012-04-24 10:33:34 51°13.636 2°56.017 16.988 1.035587 6.564348 -2.458615
2012-04-24 10:33:39 51°13.636 2°56.017 16.9864 1.030746 6.531172 -2.458615
2012-04-24 10:33:44 51°13.635 2°56.017 16.9806 1.033321 6.548873 -2.458615
2012-04-24 10:33:49 51°13.635 2°56.017 16.9796 1.033012 6.546643 -2.458615
2012-04-24 10:33:54 51°13.635 2°56.017 16.9743 1.038678 6.585335 -2.458615
2012-04-24 10:33:59 51°13.635 2°56.017 16.975 1.031467 6.536095 -2.458615
2012-04-24 10:34:04 51°13.635 2°56.017 16.8604 1.031467 6.536095 -2.458615
2012-04-24 10:34:09 51°13.635 2°56.016 16.6858 1.037545 6.577595 -2.458615
2012-04-24 10:34:13 51°13.635 2°56.015 16.7067 1.033836 6.55239 -2.458615
2012-04-24 10:34:19 51°13.635 2°56.012 16.7891 1.043622 6.61924 -2.458615
2012-04-24 10:34:25 51°13.637 2°56.008 16.7222 1.04218 6.609264 -2.458615
2012-04-24 10:34:30 51°13.638 2°56.003 16.814 1.033836 6.55239 -2.458615
2012-04-24 10:34:34 51°13.639 2°55.999 16.8116 1.033836 6.55239 -2.458615
2012-04-24 10:34:39 51°13.64 2°55.993 16.829 1.046816 6.640946 -2.458615
2012-04-24 10:34:44 51°13.642 2°55.987 16.8889 1.027141 6.506566 -2.458615
2012-04-24 10:34:50 51°13.644 2°55.979 16.9044 1.038575 6.584511 -2.458615
2012-04-24 10:34:54 51°13.645 2°55.973 16.8898 1.034042 6.553557 -2.458615
2012-04-24 10:34:59 51°13.647 2°55.966 16.8826 1.036102 6.567626 -2.458615
2012-04-24 10:35:05 51°13.65 2°55.956 16.9009 1.036102 6.567626 -2.458615
2012-04-24 10:35:09 51°13.651 2°55.95 16.916 1.033218 6.547931 -2.458615
2012-04-24 10:35:14 51°13.654 2°55.941 16.9153 1.03569 6.564812 -2.458615
2012-04-24 10:35:19 51°13.656 2°55.932 16.9408 1.027656 6.509962 -2.458615
2012-04-24 10:35:25 51°13.659 2°55.92 16.9197 1.03909 6.58803 -2.458615
2012-04-24 10:35:30 51°13.661 2°55.911 16.9467 1.025493 6.495202 -2.458615
2012-04-24 10:35:34 51°13.663 2°55.903 16.9406 1.025493 6.495202 -2.458615
2012-04-24 10:35:39 51°13.665 2°55.893 16.9604 1.030643 6.53035 -2.458615
2012-04-24 10:35:44 51°13.668 2°55.883 16.9477 1.033939 6.552854 -2.458615
2012-04-24 10:35:49 51°13.67 2°55.874 16.9711 1.022402 6.474002 -2.458615
2012-04-24 10:35:54 51°13.673 2°55.864 16.9756 1.030643 6.530231 -2.458615
2012-04-24 10:35:59 51°13.676 2°55.854 16.9552 1.020445 6.460654 -2.458615
2012-04-24 10:36:04 51°13.679 2°55.844 16.9629 1.020445 6.460654 -2.458615
2012-04-24 10:36:09 51°13.683 2°55.834 16.9668 1.028274 6.514061 -2.458615
2012-04-24 10:36:14 51°13.687 2°55.824 16.9577 1.027347 6.507616 -2.458615
2012-04-24 10:36:19 51°13.691 2°55.815 16.9683 1.033115 6.547108 -2.458615
2012-04-24 10:36:25 51°13.696 2°55.803 16.9115 1.034763 6.558361 -2.458615
2012-04-24 10:36:30 51°13.701 2°55.794 16.9723 1.033218 6.547811 -2.458615
2012-04-24 10:36:35 51°13.707 2°55.785 16.9467 1.033218 6.547811 -2.458615
2012-04-24 10:36:39 51°13.711 2°55.778 16.9729 1.030025 6.526012 -2.458615
2012-04-24 10:36:44 51°13.716 2°55.77 16.9429 1.034145 6.554141 -2.458615
2012-04-24 10:36:49 51°13.722 2°55.761 16.9598 1.028068 6.512655 -2.458615
2012-04-24 10:36:54 51°13.727 2°55.753 16.942 1.034969 6.559768 -2.458615
2012-04-24 10:36:59 51°13.732 2°55.744 16.9525 1.019621 6.455035 -2.458615
2012-04-24 10:37:05 51°13.739 2°55.734 16.9027 1.019621 6.455035 -2.458615
2012-04-24 10:37:10 51°13.745 2°55.726 16.838 1.043828 6.620286 -2.458615
2012-04-24 10:37:15 51°13.75 2°55.718 16.9388 1.022608 6.475408 -2.458615
2012-04-24 10:37:19 51°13.755 2°55.712 16.9596 1.035999 6.566802 -2.458615
2012-04-24 10:37:24 51°13.761 2°55.704 16.9543 1.023432 6.48091 -2.458615
2012-04-24 10:37:30 51°13.769 2°55.695 16.955 1.026008 6.498478 -2.458615
2012-04-24 10:37:34 51°13.774 2°55.689 16.9406 1.026008 6.498478 -2.458615
2012-04-24 10:37:39 51°13.78 2°55.681 16.944 1.028892 6.51816 -2.458615
2012-04-24 10:37:44 51°13.786 2°55.674 16.9485 1.024977 6.491451 -2.458615
2012-04-24 10:37:49 51°13.793 2°55.667 16.9698 1.027141 6.50621 -2.458615
2012-04-24 10:37:54 51°13.8 2°55.66 16.9419 1.029407 6.521675 -2.458615
2012-04-24 10:37:59 51°13.806 2°55.653 16.934 1.025183 6.492856 -2.458615
2012-04-24 10:38:04 51°13.813 2°55.647 16.9382 1.025183 6.492856 -2.458615
2012-04-24 10:38:10 51°13.821 2°55.64 16.9633 1.026111 6.499181 -2.458615
2012-04-24 10:38:15 51°13.828 2°55.635 16.9693 1.025183 6.492856 -2.458615
2012-04-24 10:38:19 51°13.833 2°55.632 17.0232 1.029613 6.523081 -2.458615
2012-04-24 10:38:25 51°13.841 2°55.627 17.0163 1.025596 6.495667 -2.458615
2012-04-24 10:38:30 51°13.847 2°55.623 16.9077 1.033527 6.549801 -2.458615
2012-04-24 10:38:34 51°13.852 2°55.62 16.8579 1.033527 6.549801 -2.458615
2012-04-24 10:38:40 51°13.859 2°55.616 16.8352 1.026626 6.502695 -2.458615
2012-04-24 10:38:45 51°13.866 2°55.613 16.9668 1.03466 6.557538 -2.458615
2012-04-24 10:38:50 51°13.871 2°55.611 16.987 1.030025 6.525893 -2.458615
2012-04-24 10:38:54 51°13.876 2°55.609 16.9764 1.016222 6.431742 -2.458615
2012-04-24 10:39:00 51°13.883 2°55.607 16.9416 1.030334 6.527883 -2.458615
2012-04-24 10:39:04 51°13.887 2°55.606 16.9464 1.030334 6.527883 -2.458615
2012-04-24 10:39:09 51°13.892 2°55.605 16.9374 1.024668 6.489224 -2.458615
2012-04-24 10:39:14 51°13.897 2°55.604 16.9836 1.027244 6.506794 -2.458615
2012-04-24 10:39:20 51°13.903 2°55.604 16.864 1.031055 6.532924 -2.458615
2012-04-24 10:39:25 51°13.908 2°55.605 16.9106 1.029922 6.52519 -2.458615
2012-04-24 10:39:29 51°13.911 2°55.605 16.9237 1.029407 6.521675 -2.458615
2012-04-24 10:39:34 51°13.916 2°55.606 16.9461 1.029407 6.521675 -2.458615
2012-04-24 10:39:39 51°13.921 2°55.608 16.9439 1.033321 6.548395 -2.458615
2012-04-24 10:39:45 51°13.926 2°55.609 16.8231 1.029922 6.525309 -2.458615
2012-04-24 10:39:49 51°13.93 2°55.611 16.9065 1.035999 6.566802 -2.458615
2012-04-24 10:39:55 51°13.935 2°55.614 16.9424 1.028377 6.514645 -2.458615
2012-04-24 10:39:59 51°13.938 2°55.616 16.9402 1.034454 6.556251 -2.458615
2012-04-24 10:40:04 51°13.942 2°55.618 16.9806 1.034454 6.556251 -2.458615
2012-04-24 10:40:10 51°13.947 2°55.622 16.9468 1.02745 6.508437 -2.458615
2012-04-24 10:40:15 51°13.95 2°55.624 16.948 1.033836 6.551911 -2.458615
2012-04-24 10:40:20 51°13.953 2°55.627 16.9312 1.027656 6.509724 -2.458615
2012-04-24 10:40:24 51°13.956 2°55.63 16.959 1.030437 6.528706 -2.458615
2012-04-24 10:40:30 51°13.96 2°55.634 16.943 1.034042 6.553318 -2.458615
2012-04-24 10:40:35 51°13.963 2°55.636 16.98 1.034042 6.553318 -2.458615
2012-04-24 10:40:40 51°13.965 2°55.639 16.9749 1.015707 6.428114 -2.458615
2012-04-24 10:40:44 51°13.967 2°55.641 16.9906 1.028892 6.518041 -2.458615
2012-04-24 10:40:49 51°13.968 2°55.642 16.9767 1.016943 6.436422 -2.458615
2012-04-24 10:40:55 51°13.97 2°55.643 17.0309 1.015398 6.42589 -2.458615
2012-04-24 10:40:59 51°13.97 2°55.643 17.0386 1.017252 6.438412 -2.458615
2012-04-24 10:41:04 51°13.971 2°55.643 17.0398 1.017252 6.438412 -2.458615
2012-04-24 10:41:09 51°13.971 2°55.642 17.032 1.007981 6.375241 -2.458615
2012-04-24 10:41:14 51°13.971 2°55.64 17.0074 1.018385 6.446019 -2.458615
2012-04-24 10:41:20 51°13.97 2°55.636 16.8168 1.022402 6.47353 -2.458615
2012-04-24 10:41:25 51°13.97 2°55.633 16.6981 1.019106 6.451052 -2.458615
2012-04-24 10:41:29 51°13.97 2°55.629 16.4551 1.032394 6.541827 -2.458615
2012-04-24 10:41:34 51°13.971 2°55.624 16.626 1.032394 6.541827 -2.458615
2012-04-24 10:41:39 51°13.972 2°55.619 16.5678 1.032909 6.545462 -2.458615
2012-04-24 10:41:44 51°13.973 2°55.613 16.4983 1.040429 6.597058 -2.458615
2012-04-24 10:41:49 51°13.975 2°55.606 16.7261 1.045477 6.631671 -2.458615
2012-04-24 10:41:54 51°13.978 2°55.599 16.7048 1.042798 6.613487 -2.458615
2012-04-24 10:41:59 51°13.981 2°55.592 16.7928 1.055881 6.703186 -2.458615
2012-04-24 10:42:04 51°13.986 2°55.584 16.8254 1.055881 6.703186 -2.458615
2012-04-24 10:42:10 51°13.992 2°55.574 16.796 1.044755 6.626984 -2.458615
2012-04-24 10:42:14 51°13.997 2°55.567 16.7551 1.038781 6.586279 -2.458615
2012-04-24 10:42:19 51°14.004 2°55.558 16.7102 1.04764 6.646822 -2.458615
2012-04-24 10:42:24 51°14.011 2°55.549 16.7244 1.035896 6.566458 -2.458615
2012-04-24 10:42:30 51°14.021 2°55.539 16.7122 1.039605 6.591909 -2.458615
2012-04-24 10:42:34 51°14.028 2°55.531 16.7401 1.039605 6.591909 -2.458615
2012-04-24 10:42:39 51°14.037 2°55.522 16.647 1.039399 6.590141 -2.458615
2012-04-24 10:42:44 51°14.046 2°55.512 16.7424 1.035072 6.560831 -2.458615
2012-04-24 10:42:49 51°14.055 2°55.503 16.6896 1.03054 6.529528 -2.458615
2012-04-24 10:42:54 51°14.065 2°55.493 16.7239 1.026935 6.505041 -2.458615
2012-04-24 10:42:59 51°14.076 2°55.483 16.6548 1.021578 6.468382 -2.458615
2012-04-24 10:43:04 51°14.086 2°55.472 16.5934 1.021578 6.468382 -2.458615
2012-04-24 10:43:09 51°14.097 2°55.461 16.6042 1.018694 6.448478 -2.458615
2012-04-24 10:43:15 51°14.11 2°55.448 16.6426 1.042695 6.612422 -2.458615
2012-04-24 10:43:19 51°14.118 2°55.439 16.524 1.003552 6.345195 -2.458615
2012-04-24 10:43:24 51°14.13 2°55.428 16.5329 1.052481 6.679321 -2.458615
2012-04-24 10:43:29 51°14.141 2°55.417 16.6856 1.005715 6.36004 -2.458615
2012-04-24 10:43:34 51°14.153 2°55.406 16.6937 1.005715 6.36004 -2.458615
2012-04-24 10:43:39 51°14.164 2°55.394 16.6956 1.042695 6.612301 -2.458615
2012-04-24 10:43:44 51°14.176 2°55.382 16.4718 0.981304 6.193646 -2.458615
2012-04-24 10:43:49 51°14.188 2°55.37 16.6479 1.048361 6.651024 -2.458615
2012-04-24 10:43:54 51°14.2 2°55.358 16.3817 1.034145 6.553663 -2.458615
2012-04-24 10:43:59 51°14.212 2°55.347 16.6634 1.03806 6.580873 -2.458615
2012-04-24 10:44:04 51°14.224 2°55.335 16.6737 1.03806 6.580873 -2.458615
2012-04-24 10:44:10 51°14.239 2°55.321 16.5311 1.020651 6.461706 -2.458615
2012-04-24 10:44:15 51°14.252 2°55.309 16.6566 1.019621 6.454682 -2.458615
2012-04-24 10:44:20 51°14.264 2°55.297 16.6725 1.033218 6.547453 -2.458615
2012-04-24 10:44:24 51°14.274 2°55.287 16.5834 0.993561 6.276857 -2.458615
2012-04-24 10:44:29 51°14.287 2°55.275 16.6964 1.049906 6.661467 -2.458615
2012-04-24 10:44:34 51°14.3 2°55.263 16.7072 1.049906 6.661467 -2.458615
2012-04-24 10:44:39 51°14.312 2°55.25 16.5881 0.984188 6.213357 -2.458615
2012-04-24 10:44:44 51°14.325 2°55.237 16.6468 1.049597 6.659354 -2.458615
2012-04-24 10:44:49 51°14.338 2°55.224 16.6164 1.004582 6.352208 -2.458615
2012-04-24 10:44:55 51°14.354 2°55.207 16.4866 0.998505 6.310839 -2.458615
2012-04-24 10:45:00 51°14.367 2°55.194 16.3494 1.07123 6.807653 -2.458615
2012-04-24 10:45:04 51°14.378 2°55.183 16.6991 1.07123 6.807653 -2.458615
2012-04-24 10:45:09 51°14.391 2°55.169 16.6255 0.997887 6.306748 -2.458615
2012-04-24 10:45:15 51°14.406 2°55.151 16.4123 1.006333 6.3639 -2.458615
2012-04-24 10:45:19 51°14.417 2°55.139 16.5088 1.033218 6.547333 -2.458615
2012-04-24 10:45:24 51°14.43 2°55.125 16.5037 1.027553 6.508784 -2.458615
2012-04-24 10:45:29 51°14.443 2°55.11 16.3078 1.062886 6.750388 -2.458615
2012-04-24 10:45:34 51°14.457 2°55.095 16.5146 1.062886 6.750388 -2.458615
2012-04-24 10:45:39 51°14.47 2°55.08 16.4618 1.010763 6.394186 -2.458615
2012-04-24 10:45:44 51°14.484 2°55.065 16.5541 1.013235 6.411031 -2.458615
2012-04-24 10:45:49 51°14.496 2°55.049 16.3938 1.049391 6.657824 -2.458615
2012-04-24 10:45:54 51°14.51 2°55.033 16.6559 0.972034 6.130692 -2.458615
2012-04-24 10:45:59 51°14.522 2°55.016 16.5416 1.028789 6.517219 -2.458615
2012-04-24 10:46:04 51°14.535 2°54.998 16.4529 1.028789 6.517219 -2.458615
2012-04-24 10:46:09 51°14.547 2°54.981 16.2986 0.98975 6.251053 -2.458615
2012-04-24 10:46:14 51°14.56 2°54.964 16.4499 1.070303 6.801302 -2.458615
2012-04-24 10:46:18 51°14.57 2°54.951 16.5426 1.019724 6.45562 -2.458615
2012-04-24 10:46:24 51°14.586 2°54.93 16.5114 1.000153 6.322171 -2.458615
2012-04-24 10:46:28 51°14.596 2°54.916 16.4322 1.098119 6.992194 -2.458615
2012-04-24 10:46:34 51°14.612 2°54.897 16.5647 1.098119 6.992194 -2.458615
2012-04-24 10:46:39 51°14.625 2°54.88 16.4493 0.980892 6.191412 -2.458615
2012-04-24 10:46:44 51°14.638 2°54.863 16.5105 1.065976 6.77167 -2.458615
2012-04-24 10:46:49 51°14.651 2°54.847 16.5644 1.02199 6.471192 -2.458615
2012-04-24 10:46:54 51°14.664 2°54.83 16.5467 1.025699 6.49637 -2.458615
2012-04-24 10:46:59 51°14.678 2°54.814 16.5038 1.052275 6.677912 -2.458615
2012-04-24 10:47:03 51°14.688 2°54.802 16.5051 1.052275 6.677912 -2.458615
2012-04-24 10:47:08 51°14.702 2°54.786 16.5302 1.021372 6.467213 -2.458615
2012-04-24 10:47:13 51°14.715 2°54.77 16.4972 1.041459 6.604216 -2.458615
2012-04-24 10:47:18 51°14.728 2°54.754 16.5393 1.005097 6.355947 -2.458615
2012-04-24 10:47:23 51°14.742 2°54.737 16.5052 1.039708 6.592132 -2.458615
2012-04-24 10:47:27 51°14.752 2°54.724 16.5038 1.040532 6.597641 -2.458615
2012-04-24 10:47:32 51°14.765 2°54.707 16.5937 1.040532 6.597641 -2.458615
2012-04-24 10:47:38 51°14.781 2°54.687 16.6277 0.991192 6.261315 -2.458615
2012-04-24 10:47:43 51°14.793 2°54.669 16.398 0.989647 6.250352 -2.458615
2012-04-24 10:47:48 51°14.806 2°54.651 16.4422 1.023226 6.47915 -2.458615
2012-04-24 10:47:53 51°14.818 2°54.634 16.4648 1.050524 6.666058 -2.458615
2012-04-24 10:47:58 51°14.831 2°54.617 16.4659 1.037854 6.579466 -2.458615
2012-04-24 10:48:03 51°14.844 2°54.601 16.4954 1.037854 6.579466 -2.458615
2012-04-24 10:48:07 51°14.855 2°54.588 16.3958 1.012411 6.405766 -2.458615
2012-04-24 10:48:12 51°14.868 2°54.572 16.3443 1.032394 6.541946 -2.458615
2012-04-24 10:48:17 51°14.881 2°54.556 16.526 1.056087 6.704228 -2.458615
2012-04-24 10:48:22 51°14.895 2°54.541 16.3907 1.016943 6.436775 -2.458615
2012-04-24 10:48:27 51°14.909 2°54.527 16.2938 1.023741 6.483018 -2.458615
2012-04-24 10:48:32 51°14.923 2°54.514 16.3239 1.023741 6.483018 -2.458615
2012-04-24 10:48:36 51°14.935 2°54.505 16.4151 1.08658 6.913382 -2.458615
2012-04-24 10:48:41 51°14.95 2°54.495 16.4348 1.082768 6.887489 -2.458615
2012-04-24 10:48:46 51°14.965 2°54.487 16.4602 1.04012 6.595548 -2.458615
2012-04-24 10:48:51 51°14.981 2°54.479 16.4525 1.03157 6.536917 -2.458615
2012-04-24 10:48:56 51°14.996 2°54.473 16.4547 1.033527 6.55016 -2.458615
2012-04-24 10:49:00 51°15.009 2°54.467 16.4484 1.033527 6.55016 -2.458615
2012-04-24 10:49:06 51°15.027 2°54.461 16.3783 1.036206 6.568449 -2.458615
2012-04-24 10:49:11 51°15.043 2°54.458 16.4091 1.038884 6.586743 -2.458615
2012-04-24 10:49:16 51°15.059 2°54.456 16.3843 1.037442 6.576892 -2.458615
2012-04-24 10:49:20 51°15.072 2°54.455 16.3722 1.049082 6.656562 -2.458615
2012-04-24 10:49:26 51°15.091 2°54.455 16.3713 1.058971 6.724456 -2.458615
2012-04-24 10:49:31 51°15.106 2°54.457 16.3961 1.058971 6.724456 -2.458615
2012-04-24 10:49:36 51°15.121 2°54.462 16.4099 1.067007 6.77959 -2.458615
2012-04-24 10:49:41 51°15.136 2°54.468 16.4583 1.055572 6.701438 -2.458615
2012-04-24 10:49:46 51°15.15 2°54.476 16.5064 1.079987 6.868791 -2.458615
2012-04-24 10:49:51 51°15.164 2°54.486 16.4641 1.051966 6.676895 -2.458615
2012-04-24 10:49:56 51°15.178 2°54.496 16.3522 1.064019 6.759009 -2.458615
2012-04-24 10:50:01 51°15.191 2°54.507 16.4059 1.064019 6.759009 -2.458615
2012-04-24 10:50:06 51°15.204 2°54.521 16.4397 1.057529 6.715076 -2.458615
2012-04-24 10:50:11 51°15.216 2°54.535 16.4655 1.071127 6.80819 -2.458615
2012-04-24 10:50:16 51°15.228 2°54.55 16.5242 1.055778 6.703093 -2.458615
2012-04-24 10:50:20 51°15.237 2°54.563 16.547 1.06268 6.750333 -2.458615
2012-04-24 10:50:26 51°15.25 2°54.582 16.6189 1.025493 6.495913 -2.458615
2012-04-24 10:50:31 51°15.262 2°54.598 16.5465 1.025493 6.495913 -2.458615
2012-04-24 10:50:36 51°15.273 2°54.614 16.4373 0.991192 6.262001 -2.458615
2012-04-24 10:50:41 51°15.285 2°54.629 16.5523 1.046713 6.640848 -2.458615
2012-04-24 10:50:46 51°15.297 2°54.644 16.4084 0.991913 6.266791 -2.458615
2012-04-24 10:50:51 51°15.309 2°54.659 16.4859 1.042695 6.613387 -2.458615
2012-04-24 10:50:56 51°15.321 2°54.674 16.5544 1.012411 6.406468 -2.458615
2012-04-24 10:51:01 51°15.334 2°54.689 16.5906 1.012411 6.406468 -2.458615
2012-04-24 10:51:06 51°15.346 2°54.703 16.6326 1.000977 6.328472 -2.458615
2012-04-24 10:51:11 51°15.359 2°54.716 16.5957 0.982952 6.205636 -2.458615
2012-04-24 10:51:16 51°15.372 2°54.728 16.4864 0.980789 6.190712 -2.458615
2012-04-24 10:51:20 51°15.383 2°54.738 16.3625 0.998711 6.312471 -2.458615
2012-04-24 10:51:26 51°15.399 2°54.751 16.3936 1.040944 6.601059 -2.458615
2012-04-24 10:51:31 51°15.413 2°54.764 16.4647 1.040944 6.601059 -2.458615
2012-04-24 10:51:36 51°15.426 2°54.776 16.506 1.042283 6.61045 -2.458615
2012-04-24 10:51:41 51°15.439 2°54.789 16.4448 0.997784 6.306853 -2.458615
2012-04-24 10:51:46 51°15.452 2°54.802 16.4724 1.034351 6.556146 -2.458615
2012-04-24 10:51:51 51°15.465 2°54.815 16.5256 1.024256 6.48736 -2.458615
2012-04-24 10:51:56 51°15.479 2°54.828 16.5622 0.997063 6.302176 -2.458615
2012-04-24 10:52:00 51°15.489 2°54.838 16.5352 0.997063 6.302176 -2.458615
2012-04-24 10:52:06 51°15.506 2°54.853 16.4795 0.986248 6.228267 -2.458615
2012-04-24 10:52:11 51°15.519 2°54.865 16.5539 0.988102 6.241214 -2.458615
2012-04-24 10:52:16 51°15.533 2°54.877 16.3608 1.025493 6.495913 -2.458615
2012-04-24 10:52:20 51°15.545 2°54.885 16.5042 0.975227 6.153829 -2.458615
2012-04-24 10:52:26 51°15.561 2°54.899 16.4045 1.007981 6.376637 -2.458615
2012-04-24 10:52:31 51°15.575 2°54.91 16.3726 1.007981 6.376637 -2.458615
2012-04-24 10:52:36 51°15.589 2°54.921 16.483 1.076484 6.844778 -2.458615
2012-04-24 10:52:41 51°15.602 2°54.933 16.4665 0.965751 6.089388 -2.458615
2012-04-24 10:52:46 51°15.616 2°54.945 16.409 1.078339 6.857615 -2.458615
2012-04-24 10:52:51 51°15.629 2°54.959 16.4057 0.976566 6.162699 -2.458615
2012-04-24 10:52:56 51°15.643 2°54.971 16.4106 1.061341 6.741534 -2.458615
2012-04-24 10:53:01 51°15.655 2°54.986 16.4401 1.061341 6.741534 -2.458615
2012-04-24 10:53:06 51°15.668 2°55 16.4331 1.04867 6.654473 -2.458615
2012-04-24 10:53:11 51°15.681 2°55.015 16.4196 1.001801 6.334892 -2.458615
2012-04-24 10:53:16 51°15.693 2°55.03 16.4493 1.047434 6.646506 -2.458615
2012-04-24 10:53:21 51°15.705 2°55.047 16.3386 1.06608 6.774106 -2.458615
2012-04-24 10:53:26 51°15.717 2°55.063 16.438 1.046095 6.637955 -2.458615
2012-04-24 10:53:31 51°15.728 2°55.08 16.4444 1.046095 6.637955 -2.458615
2012-04-24 10:53:36 51°15.739 2°55.097 16.4495 1.096779 6.985166 -2.458615
2012-04-24 10:53:41 51°15.75 2°55.116 16.453 0.99799 6.309521 -2.458615
2012-04-24 10:53:46 51°15.761 2°55.133 16.4948 1.104506 7.038508 -2.458615
2012-04-24 10:53:51 51°15.771 2°55.152 16.4398 1.020548 6.463008 -2.458615
2012-04-24 10:53:56 51°15.782 2°55.17 16.4814 1.05073 6.669658 -2.458615
2012-04-24 10:54:00 51°15.79 2°55.185 16.5183 1.05073 6.669658 -2.458615
2012-04-24 10:54:06 51°15.803 2°55.206 16.5232 1.02642 6.50307 -2.458615
2012-04-24 10:54:11 51°15.814 2°55.225 16.4542 0.965545 6.088657 -2.458615
2012-04-24 10:54:16 51°15.825 2°55.242 16.4382 1.005097 6.357571 -2.458615
2012-04-24 10:54:20 51°15.834 2°55.256 16.5054 1.020239 6.460782 -2.458615
2012-04-24 10:54:26 51°15.848 2°55.276 16.5059 0.972961 6.138665 -2.458615
2012-04-24 10:54:31 51°15.86 2°55.292 16.3754 0.972961 6.138665 -2.458615
2012-04-24 10:54:36 51°15.872 2°55.308 16.4155 1.027759 6.511972 -2.458615
2012-04-24 10:54:41 51°15.884 2°55.325 16.4044 1.031467 6.537288 -2.458615
2012-04-24 10:54:46 51°15.895 2°55.341 16.4565 1.000359 6.325304 -2.458615
2012-04-24 10:54:51 51°15.907 2°55.358 16.429 1.050833 6.669876 -2.458615
2012-04-24 10:54:56 51°15.918 2°55.375 16.488 1.053512 6.688442 -2.458615
2012-04-24 10:55:01 51°15.929 2°55.392 16.5479 1.053512 6.688442 -2.458615
2012-04-24 10:55:05 51°15.938 2°55.406 16.4814 0.984497 6.217611 -2.458615
2012-04-24 10:55:11 51°15.952 2°55.425 16.49 0.992222 6.270037 -2.458615
2012-04-24 10:55:16 51°15.964 2°55.441 16.4004 0.985012 6.220886 -2.458615
2012-04-24 10:55:21 51°15.977 2°55.457 16.454 1.000874 6.329157 -2.458615
2012-04-24 10:55:25 51°15.987 2°55.469 16.4846 1.006127 6.365052 -2.458615
2012-04-24 10:55:31 51°16.001 2°55.487 16.4782 1.006127 6.365052 -2.458615
2012-04-24 10:55:36 51°16.014 2°55.502 16.4569 0.978214 6.175133 -2.458615
2012-04-24 10:55:40 51°16.024 2°55.514 16.4923 1.015913 6.431865 -2.458615
2012-04-24 10:55:45 51°16.036 2°55.529 16.3636 0.992222 6.27038 -2.458615
2012-04-24 10:55:51 51°16.052 2°55.546 16.441 0.990677 6.25964 -2.458615
2012-04-24 10:55:56 51°16.065 2°55.56 16.4272 1.043416 6.619402 -2.458615
2012-04-24 10:56:00 51°16.075 2°55.571 16.4804 1.043416 6.619402 -2.458615
2012-04-24 10:56:06 51°16.09 2°55.589 16.4742 1.002934 6.343186 -2.458615
2012-04-24 10:56:11 51°16.102 2°55.604 16.3605 1.007672 6.375346 -2.458615
2012-04-24 10:56:16 51°16.115 2°55.618 16.4234 1.01581 6.430928 -2.458615
2012-04-24 10:56:20 51°16.125 2°55.63 16.3814 1.049597 6.661907 -2.458615
2012-04-24 10:56:25 51°16.138 2°55.644 16.3817 1.02539 6.496751 -2.458615
2012-04-24 10:56:31 51°16.152 2°55.663 16.3723 1.02539 6.496751 -2.458615
2012-04-24 10:56:36 51°16.164 2°55.679 16.4568 1.037442 6.579293 -2.458615
2012-04-24 10:56:40 51°16.173 2°55.692 16.4207 1.046404 6.640553 -2.458615
2012-04-24 10:56:45 51°16.185 2°55.709 16.4072 0.996651 6.300981 -2.458615
2012-04-24 10:56:51 51°16.199 2°55.729 16.4306 1.024565 6.491127 -2.458615
2012-04-24 10:56:56 51°16.21 2°55.746 16.4704 1.052688 6.683292 -2.458615
2012-04-24 10:57:00 51°16.219 2°55.76 16.4855 1.052688 6.683292 -2.458615
2012-04-24 10:57:05 51°16.23 2°55.777 16.4637 1.00211 6.337921 -2.458615
2012-04-24 10:57:11 51°16.243 2°55.798 16.488 1.039399 6.592306 -2.458615
2012-04-24 10:57:16 51°16.255 2°55.815 16.4734 0.978214 6.175246 -2.458615
2012-04-24 10:57:21 51°16.266 2°55.832 16.3953 1.04321 6.618357 -2.458615
2012-04-24 10:57:25 51°16.275 2°55.845 16.4158 1.017458 6.442519 -2.458615
2012-04-24 10:57:31 51°16.289 2°55.866 16.4356 1.017458 6.442519 -2.458615
2012-04-24 10:57:36 51°16.299 2°55.884 16.4392 1.025081 6.494879 -2.458615
2012-04-24 10:57:40 51°16.308 2°55.897 16.485 1.026626 6.505544 -2.458615
2012-04-24 10:57:45 51°16.319 2°55.915 16.5015 1.003861 6.350079 -2.458615
2012-04-24 10:57:51 51°16.333 2°55.935 16.5023 1.029613 6.52582 -2.458615
2012-04-24 10:57:56 51°16.344 2°55.952 16.4193 0.996651 6.300636 -2.458615
2012-04-24 10:58:00 51°16.353 2°55.965 16.28 0.996651 6.300636 -2.458615
2012-04-24 10:58:06 51°16.366 2°55.985 16.3961 1.074836 6.835227 -2.458615
2012-04-24 10:58:11 51°16.376 2°56.003 16.4354 1.040944 6.603469 -2.458615
2012-04-24 10:58:16 51°16.386 2°56.022 16.381 1.05176 6.677436 -2.458615
2012-04-24 10:58:20 51°16.394 2°56.037 16.4012 1.06608 6.775714 -2.458615
2012-04-24 10:58:26 51°16.404 2°56.061 16.4067 1.050112 6.666525 -2.458615
2012-04-24 10:58:31 51°16.412 2°56.082 16.3807 1.050112 6.666525 -2.458615
2012-04-24 10:58:36 51°16.42 2°56.103 16.4374 1.152827 7.37277 -2.458615
2012-04-24 10:58:40 51°16.425 2°56.121 16.3839 0.95916 6.047321 -2.458615
2012-04-24 10:58:45 51°16.433 2°56.142 16.4015 1.135312 7.252491 -2.458615
2012-04-24 10:58:51 51°16.441 2°56.169 16.3882 1.054439 6.696252 -2.458615
2012-04-24 10:58:56 51°16.449 2°56.191 16.4231 1.035794 6.568752 -2.458615
2012-04-24 10:59:00 51°16.454 2°56.209 16.407 1.035794 6.568752 -2.458615
2012-04-24 10:59:05 51°16.461 2°56.231 16.476 1.148809 7.344502 -2.458615
2012-04-24 10:59:10 51°16.467 2°56.254 16.3632 0.951023 5.991047 -2.458615
2012-04-24 10:59:16 51°16.475 2°56.28 16.4626 1.468728 9.579857 -2.458615
2012-04-24 10:59:20 51°16.48 2°56.299 16.4299 1.052791 6.684363 -2.458615
2012-04-24 10:59:25 51°16.487 2°56.321 16.3969 1.132221 7.23 -2.458615
2012-04-24 10:59:31 51°16.494 2°56.348 16.3997 1.132221 7.23 -2.458615
2012-04-24 10:59:36 51°16.501 2°56.37 16.4049 1.159627 7.418636 -2.458615
2012-04-24 10:59:40 51°16.506 2°56.389 16.4639 1.071849 6.815371 -2.458615
2012-04-24 10:59:45 51°16.513 2°56.411 16.4113 1.122639 7.164273 -2.458615
2012-04-24 10:59:51 51°16.521 2°56.438 16.4684 1.049906 6.665481 -2.458615
2012-04-24 10:59:56 51°16.528 2°56.46 16.4018 1.141906 7.297287 -2.458615
2012-04-24 11:00:00 51°16.535 2°56.477 16.4831 1.141906 7.297287 -2.458615
2012-04-24 11:00:06 51°16.544 2°56.503 16.4041 1.040429 6.60031 -2.458615
2012-04-24 11:00:11 51°16.552 2°56.524 16.4815 1.085035 6.906186 -2.458615
2012-04-24 11:00:16 51°16.56 2°56.546 16.3921 1.106979 7.056534 -2.458615
2012-04-24 11:00:20 51°16.568 2°56.562 16.5019 1.031467 6.539317 -2.458615
2012-04-24 11:00:26 51°16.578 2°56.586 16.384 1.100179 7.009927 -2.458615
2012-04-24 11:00:31 51°16.587 2°56.606 16.4632 1.100179 7.009927 -2.458615
2012-04-24 11:00:36 51°16.597 2°56.626 16.387 1.04115 6.604877 -2.458615
2012-04-24 11:00:40 51°16.605 2°56.642 16.4514 1.080811 6.876577 -2.458615
2012-04-24 11:00:46 51°16.616 2°56.665 16.3942 1.103064 7.029109 -2.458615
2012-04-24 11:00:51 51°16.626 2°56.685 16.4216 1.039605 6.594075 -2.458615
2012-04-24 11:00:56 51°16.636 2°56.704 16.3991 1.101931 7.021706 -2.458615
2012-04-24 11:01:00 51°16.644 2°56.72 16.4694 1.101931 7.021706 -2.458615
2012-04-24 11:01:05 51°16.654 2°56.739 16.4258 1.05722 6.714677 -2.458615
2012-04-24 11:01:11 51°16.666 2°56.762 16.3863 0.992531 6.27294 -2.458615
2012-04-24 11:01:16 51°16.677 2°56.779 16.4328 1.102137 7.022994 -2.458615
2012-04-24 11:01:21 51°16.688 2°56.798 16.4187 1.051451 6.6752 -2.458615
2012-04-24 11:01:25 51°16.697 2°56.812 16.3676 1.070921 6.808891 -2.458615
2012-04-24 11:01:30 51°16.708 2°56.831 16.3513 1.070921 6.808891 -2.458615
2012-04-24 11:01:36 51°16.721 2°56.853 16.4207 1.088538 6.929721 -2.458615
2012-04-24 11:01:41 51°16.731 2°56.871 16.3988 1.039502 6.593853 -2.458615
2012-04-24 11:01:45 51°16.74 2°56.886 16.4065 1.111718 7.089513 -2.458615
2012-04-24 11:01:51 51°16.752 2°56.909 16.3068 1.065874 6.774427 -2.458615
2012-04-24 11:01:56 51°16.763 2°56.928 16.3442 1.124596 7.178931 -2.458615
2012-04-24 11:02:00 51°16.77 2°56.945 16.397 1.124596 7.178931 -2.458615
2012-04-24 11:02:05 51°16.779 2°56.965 16.3989 1.109761 7.076566 -2.458615
2012-04-24 11:02:11 51°16.79 2°56.991 16.4022 1.065564 6.773052 -2.458615
2012-04-24 11:02:16 51°16.798 2°57.012 16.4 1.11553 7.116127 -2.458615
2012-04-24 11:02:20 51°16.805 2°57.029 16.4164 1.07669 6.849066 -2.458615
2012-04-24 11:02:26 51°16.814 2°57.056 16.4509 1.032394 6.545888 -2.458615
2012-04-24 11:02:31 51°16.822 2°57.078 16.4415 1.032394 6.545888 -2.458615
2012-04-24 11:02:36 51°16.831 2°57.099 16.4047 1.047125 6.646091 -2.458615
2012-04-24 11:02:40 51°16.837 2°57.117 16.4265 1.029201 6.523721 -2.458615
2012-04-24 11:02:46 51°16.847 2°57.143 16.3993 1.061238 6.742675 -2.458615
2012-04-24 11:02:51 51°16.856 2°57.164 16.4331 1.023741 6.486332 -2.458615
2012-04-24 11:02:56 51°16.864 2°57.185 16.345 1.062989 6.754545 -2.458615
2012-04-24 11:03:00 51°16.871 2°57.202 16.3891 1.062989 6.754545 -2.458615
2012-04-24 11:03:05 51°16.879 2°57.224 16.3672 1.083181 6.893335 -2.458615
2012-04-24 11:03:11 51°16.888 2°57.251 16.3801 1.071333 6.812462 -2.458615
2012-04-24 11:03:16 51°16.896 2°57.273 16.3927 1.118312 7.135271 -2.458615
2012-04-24 11:03:20 51°16.901 2°57.292 16.4014 1.096573 6.98592 -2.458615
2012-04-24 11:03:26 51°16.909 2°57.32 16.4458 1.042592 6.615943 -2.458615
2012-04-24 11:03:31 51°16.916 2°57.343 16.3456 1.042592 6.615943 -2.458615
2012-04-24 11:03:36 51°16.923 2°57.366 16.4314 1.098016 6.995829 -2.458615
2012-04-24 11:03:40 51°16.928 2°57.385 16.4508 1.063504 6.759431 -2.458615
2012-04-24 11:03:45 51°16.935 2°57.408 16.4494 1.021681 6.4731 -2.458615
2012-04-24 11:03:51 51°16.943 2°57.435 16.4284 1.048052 6.653161 -2.458615
2012-04-24 11:03:56 51°16.95 2°57.457 16.4838 1.046095 6.639773 -2.458615
2012-04-24 11:04:01 51°16.958 2°57.479 16.4488 1.046095 6.639773 -2.458615
2012-04-24 11:04:05 51°16.964 2°57.497 16.3884 0.991295 6.265445 -2.458615
2012-04-24 11:04:11 51°16.974 2°57.522 16.4527 1.08998 6.940255 -2.458615
2012-04-24 11:04:16 51°16.982 2°57.544 16.4241 1.004273 6.353698 -2.458615
2012-04-24 11:04:20 51°16.989 2°57.561 16.3812 1.076175 6.845408 -2.458615
2012-04-24 11:04:25 51°16.998 2°57.582 16.4273 0.999844 6.323413 -2.458615
2012-04-24 11:04:31 51°17.008 2°57.607 16.3979 0.999844 6.323413 -2.458615
2012-04-24 11:04:36 51°17.017 2°57.628 16.4209 1.056087 6.707778 -2.458615
2012-04-24 11:04:40 51°17.024 2°57.645 16.3668 1.040429 6.600551 -2.458615
2012-04-24 11:04:46 51°17.034 2°57.67 16.4074 1.058662 6.725532 -2.458615
2012-04-24 11:04:51 51°17.042 2°57.691 16.3882 1.038266 6.586126 -2.458615
2012-04-24 11:04:56 51°17.05 2°57.713 16.3909 1.126039 7.188996 -2.458615
2012-04-24 11:05:00 51°17.056 2°57.731 16.4218 1.126039 7.188996 -2.458615
2012-04-24 11:05:06 51°17.065 2°57.758 16.3989 1.048464 6.656223 -2.458615
2012-04-24 11:05:11 51°17.072 2°57.78 16.4344 1.10224 7.02537 -2.458615
2012-04-24 11:05:16 51°17.078 2°57.803 16.4394 1.095646 6.979932 -2.458615
2012-04-24 11:05:20 51°17.084 2°57.821 16.4337 0.997269 6.306685 -2.458615
2012-04-24 11:05:25 51°17.09 2°57.844 16.4289 1.160349 7.426058 -2.458615
2012-04-24 11:05:31 51°17.097 2°57.872 16.4806 1.160349 7.426058 -2.458615
2012-04-24 11:05:36 51°17.104 2°57.894 16.3938 1.02436 6.491262 -2.458615
2012-04-24 11:05:40 51°17.11 2°57.912 16.4207 1.024772 6.494311 -2.458615
2012-04-24 11:05:45 51°17.117 2°57.935 16.4004 1.079266 6.867231 -2.458615
2012-04-24 11:05:51 51°17.126 2°57.961 16.468 1.018282 6.450023 -2.458615
2012-04-24 11:05:56 51°17.134 2°57.983 16.45 1.032394 6.546366 -2.458615
2012-04-24 11:06:00 51°17.14 2°58.001 16.4526 1.032394 6.546366 -2.458615
2012-04-24 11:06:05 51°17.148 2°58.022 16.4196 1.016737 6.43913 -2.458615
2012-04-24 11:06:11 51°17.158 2°58.047 16.4216 1.050112 6.667378 -2.458615
2012-04-24 11:06:16 51°17.167 2°58.068 16.4016 1.068655 6.794353 -2.458615
2012-04-24 11:06:20 51°17.173 2°58.085 16.4564 1.003861 6.35147 -2.458615
2012-04-24 11:06:26 51°17.184 2°58.11 16.4095 1.075248 6.839675 -2.458615
2012-04-24 11:06:31 51°17.192 2°58.131 16.415 1.075248 6.839675 -2.458615
2012-04-24 11:06:36 51°17.201 2°58.152 16.4149 1.086683 6.91813 -2.458615
2012-04-24 11:06:40 51°17.208 2°58.169 16.4399 1.031673 6.541679 -2.458615
2012-04-24 11:06:46 51°17.218 2°58.193 16.4341 1.08895 6.934069 -2.458615
2012-04-24 11:06:51 51°17.226 2°58.215 16.4312 1.052069 6.681259 -2.458615
2012-04-24 11:06:55 51°17.233 2°58.231 16.4169 1.047022 6.646843 -2.458615
2012-04-24 11:07:00 51°17.241 2°58.252 16.3885 1.047022 6.646843 -2.458615
2012-04-24 11:07:06 51°17.251 2°58.277 16.428 1.059281 6.730625 -2.458615
2012-04-24 11:07:11 51°17.259 2°58.299 16.3755 1.023741 6.487398 -2.458615
2012-04-24 11:07:16 51°17.268 2°58.32 16.4326 1.078442 6.861703 -2.458615
2012-04-24 11:07:20 51°17.274 2°58.337 16.4336 1.026626 6.506732 -2.458615
2012-04-24 11:07:26 51°17.283 2°58.363 16.3931 1.068346 6.792235 -2.458615
2012-04-24 11:07:31 51°17.291 2°58.384 16.3879 1.068346 6.792235 -2.458615
2012-04-24 11:07:36 51°17.299 2°58.406 16.3856 1.064225 6.764247 -2.458615
2012-04-24 11:07:40 51°17.305 2°58.424 16.4315 1.117075 7.128064 -2.458615
2012-04-24 11:07:45 51°17.311 2°58.447 16.4299 1.022917 6.482247 -2.458615
2012-04-24 11:07:51 51°17.32 2°58.473 16.4225 1.061547 6.746639 -2.458615
2012-04-24 11:07:56 51°17.327 2°58.496 16.45 1.041047 6.606344 -2.458615
2012-04-24 11:08:00 51°17.332 2°58.514 16.4458 1.041047 6.606344 -2.458615
2012-04-24 11:08:05 51°17.339 2°58.536 16.4126 1.012102 6.408689 -2.458615
2012-04-24 11:08:11 51°17.348 2°58.562 16.4187 1.05073 6.672582 -2.458615
2012-04-24 11:08:16 51°17.355 2°58.585 16.4511 1.072055 6.818651 -2.458615
2012-04-24 11:08:20 51°17.36 2°58.603 16.4438 1.062783 6.754738 -2.458615
2012-04-24 11:08:25 51°17.368 2°58.625 16.4771 1.003861 6.352282 -2.458615
2012-04-24 11:08:31 51°17.376 2°58.651 16.474 1.003861 6.352282 -2.458615
2012-04-24 11:08:36 51°17.384 2°58.672 16.5416 1.020445 6.465137 -2.458615
2012-04-24 11:08:40 51°17.391 2°58.688 16.5303 1.072879 6.824052 -2.458615
2012-04-24 11:08:46 51°17.402 2°58.711 16.3856 0.612598 3.738671 -2.458615
2012-04-24 11:08:51 51°17.414 2°58.727 16.3808 1.053718 6.692539 -2.458615
2012-04-24 11:08:56 51°17.425 2°58.745 16.3667 1.063504 6.75906 -2.458615
2012-04-24 11:09:00 51°17.434 2°58.757 16.4193 1.063504 6.75906 -2.458615
2012-04-24 11:09:06 51°17.447 2°58.778 16.4272 1.002213 6.340706 -2.458615
2012-04-24 11:09:11 51°17.459 2°58.794 16.4386 1.045992 6.639796 -2.458615
2012-04-24 11:09:16 51°17.471 2°58.81 16.4038 1.002213 6.340821 -2.458615
2012-04-24 11:09:20 51°17.48 2°58.822 16.3566 1.023432 6.485763 -2.458615
2012-04-24 11:09:26 51°17.495 2°58.84 16.3863 1.03703 6.57912 -2.458615
2012-04-24 11:09:31 51°17.507 2°58.856 16.3804 1.03703 6.57912 -2.458615
2012-04-24 11:09:36 51°17.518 2°58.872 16.3656 1.070715 6.809967 -2.458615
2012-04-24 11:09:40 51°17.527 2°58.886 16.3363 1.046816 6.646405 -2.458615
2012-04-24 11:09:45 51°17.538 2°58.904 16.3771 1.093277 6.964928 -2.458615
2012-04-24 11:09:51 51°17.55 2°58.926 16.3947 1.073909 6.831865 -2.458615
2012-04-24 11:09:56 51°17.56 2°58.946 16.4132 1.094925 6.976125 -2.458615
2012-04-24 11:10:01 51°17.569 2°58.966 16.4145 1.094925 6.976125 -2.458615
2012-04-24 11:10:05 51°17.577 2°58.981 16.4124 1.058662 6.727006 -2.458615
2012-04-24 11:10:11 51°17.588 2°59.005 16.4404 1.046507 6.643684 -2.458615
2012-04-24 11:10:16 51°17.597 2°59.025 16.45 1.01581 6.433981 -2.458615
2012-04-24 11:10:20 51°17.604 2°59.04 16.4355 1.015398 6.431171 -2.458615
2012-04-24 11:10:25 51°17.614 2°59.059 16.4151 1.015501 6.431756 -2.458615
2012-04-24 11:10:31 51°17.627 2°59.081 16.4559 1.015501 6.431756 -2.458615
2012-04-24 11:10:36 51°17.638 2°59.099 16.3864 0.972343 6.138052 -2.458615
2012-04-24 11:10:40 51°17.647 2°59.113 16.4283 1.045168 6.635008 -2.458615
2012-04-24 11:10:45 51°17.657 2°59.13 16.4137 1.034866 6.564216 -2.458615
2012-04-24 11:10:51 51°17.671 2°59.15 16.4626 1.016325 6.437848 -2.458615
2012-04-24 11:10:56 51°17.682 2°59.167 16.4356 1.041871 6.612221 -2.458615
2012-04-24 11:11:00 51°17.692 2°59.18 16.4535 1.041871 6.612221 -2.458615
2012-04-24 11:11:06 51°17.706 2°59.199 16.4107 0.97739 6.172463 -2.458615
2012-04-24 11:11:11 51°17.718 2°59.214 16.4378 1.045374 6.636175 -2.458615
2012-04-24 11:11:16 51°17.73 2°59.229 16.3906 0.994797 6.290888 -2.458615
2012-04-24 11:11:21 51°17.743 2°59.243 16.4044 1.016737 6.440776 -2.458615
2012-04-24 11:11:25 51°17.753 2°59.255 16.4152 1.038678 6.590748 -2.458615
2012-04-24 11:11:31 51°17.769 2°59.271 16.4295 1.038678 6.590748 -2.458615
2012-04-24 11:11:36 51°17.782 2°59.285 16.4019 1.008394 6.384104 -2.458615
2012-04-24 11:11:40 51°17.792 2°59.296 16.391 1.039708 6.597911 -2.458615
2012-04-24 11:11:45 51°17.805 2°59.309 16.4094 1.039605 6.597327 -2.458615
2012-04-24 11:11:51 51°17.82 2°59.326 16.3759 1.043828 6.626211 -2.458615
2012-04-24 11:11:56 51°17.833 2°59.341 16.4102 1.022093 6.477687 -2.458615
2012-04-24 11:12:00 51°17.843 2°59.353 16.3932 1.022093 6.477687 -2.458615
2012-04-24 11:12:05 51°17.855 2°59.369 16.3882 1.064122 6.764901 -2.458615
2012-04-24 11:12:11 51°17.869 2°59.389 16.3996 1.037133 6.580065 -2.458615
2012-04-24 11:12:16 51°17.88 2°59.406 16.4006 1.05176 6.68012 -2.458615
2012-04-24 11:12:20 51°17.889 2°59.42 16.3911 1.069273 6.800203 -2.458615
2012-04-24 11:12:26 51°17.901 2°59.442 16.4436 1.039708 6.598152 -2.458615
2012-04-24 11:12:31 51°17.911 2°59.461 16.3945 1.039708 6.598152 -2.458615
2012-04-24 11:12:36 51°17.921 2°59.481 16.4288 1.067625 6.789525 -2.458615
2012-04-24 11:12:40 51°17.929 2°59.496 16.4468 1.042386 6.616831 -2.458615
2012-04-24 11:12:46 51°17.941 2°59.519 16.4525 1.033424 6.555438 -2.458615
2012-04-24 11:12:51 51°17.951 2°59.537 16.4399 1.047434 6.651363 -2.458615
2012-04-24 11:12:56 51°17.961 2°59.556 16.4096 0.98563 6.229066 -2.458615
2012-04-24 11:13:00 51°17.97 2°59.571 16.4273 0.98563 6.229066 -2.458615
2012-04-24 11:13:06 51°17.983 2°59.592 16.4348 1.035485 6.569519 -2.458615
2012-04-24 11:13:11 51°17.994 2°59.61 16.3779 1.052173 6.683062 -2.458615
2012-04-24 11:13:15 51°18.003 2°59.624 16.4522 0.983776 6.216794 -2.458615
2012-04-24 11:13:20 51°18.013 2°59.642 16.3869 1.045889 6.640305 -2.458615
2012-04-24 11:13:26 51°18.027 2°59.663 16.4324 1.000256 6.328761 -2.458615
2012-04-24 11:13:31 51°18.038 2°59.68 16.3885 1.000256 6.328761 -2.458615
2012-04-24 11:13:36 51°18.049 2°59.698 16.4324 1.064328 6.766807 -2.458615
2012-04-24 11:13:41 51°18.06 2°59.715 16.3882 1.026832 6.510279 -2.458615
2012-04-24 11:13:45 51°18.069 2°59.729 16.4271 1.030437 6.535145 -2.458615
2012-04-24 11:13:51 51°18.082 2°59.751 16.4327 1.063813 6.763525 -2.458615
2012-04-24 11:13:56 51°18.093 2°59.768 16.441 1.009939 6.395223 -2.458615
2012-04-24 11:14:00 51°18.102 2°59.783 16.4398 1.009939 6.395223 -2.458615
2012-04-24 11:14:05 51°18.113 2°59.8 16.4151 1.025699 6.502659 -2.458615
2012-04-24 11:14:11 51°18.126 2°59.822 16.4205 1.026935 6.510863 -2.458615
2012-04-24 11:14:16 51°18.137 2°59.84 16.4109 1.020136 6.464445 -2.458615
2012-04-24 11:14:20 51°18.145 2°59.854 16.3934 1.051451 6.678614 -2.458615
2012-04-24 11:14:25 51°18.156 2°59.872 16.4334 1.025596 6.501956 -2.458615
2012-04-24 11:14:31 51°18.169 2°59.894 16.4249 1.025596 6.501956 -2.458615
2012-04-24 11:14:36 51°18.179 2°59.912 16.4161 1.05516 6.704248 -2.458615
2012-04-24 11:14:40 51°18.188 2°59.927 16.4306 1.027862 6.517552 -2.458615
2012-04-24 11:14:45 51°18.198 2°59.945 16.4219 1.048876 6.661232 -2.458615
2012-04-24 11:14:51 51°18.211 2°59.967 16.4437 1.014162 6.423912 -2.458615
2012-04-24 11:14:56 51°18.221 2°59.985 16.4098 1.021887 6.476517 -2.458615
2012-04-24 11:15:00 51°18.23 2°60 16.4418 1.021887 6.476517 -2.458615
2012-04-24 11:15:05 51°18.24 3°0.018 16.435 1.010969 6.402131 -2.458615
2012-04-24 11:15:10 51°18.25 3°0.036 16.4232 1.028995 6.525174 -2.458615
2012-04-24 11:15:16 51°18.263 3°0.058 16.4436 1.030025 6.53233 -2.458615
2012-04-24 11:15:21 51°18.273 3°0.077 16.4347 1.052585 6.686738 -2.458615
2012-04-24 11:15:25 51°18.281 3°0.092 16.4018 1.013338 6.418642 -2.458615
2012-04-24 11:15:31 51°18.292 3°0.115 16.4377 1.013338 6.418642 -2.458615
2012-04-24 11:15:36 51°18.302 3°0.135 16.4496 1.027244 6.513688 -2.458615
2012-04-24 11:15:40 51°18.309 3°0.15 16.4223 1.003655 6.352619 -2.458615
2012-04-24 11:15:45 51°18.319 3°0.17 16.4339 1.024257 6.493285 -2.458615
2012-04-24 11:15:51 51°18.33 3°0.193 16.4151 1.025905 6.504422 -2.458615
2012-04-24 11:15:56 51°18.339 3°0.213 16.417 1.022711 6.482735 -2.458615
2012-04-24 11:16:00 51°18.347 3°0.228 16.4074 1.022711 6.482735 -2.458615
2012-04-24 11:16:06 51°18.358 3°0.252 16.4284 1.073497 6.830162 -2.458615
2012-04-24 11:16:11 51°18.367 3°0.272 16.4152 1.024566 6.495158 -2.458615
2012-04-24 11:16:16 51°18.376 3°0.292 16.4242 1.022711 6.482498 -2.458615
2012-04-24 11:16:20 51°18.384 3°0.307 16.4265 1.035691 6.571168 -2.458615
2012-04-24 11:16:26 51°18.395 3°0.331 16.4401 1.02199 6.477575 -2.458615
2012-04-24 11:16:31 51°18.404 3°0.35 16.4358 1.02199 6.477575 -2.458615
2012-04-24 11:16:36 51°18.413 3°0.37 16.4342 1.020548 6.467848 -2.458615
2012-04-24 11:16:40 51°18.421 3°0.386 16.4484 1.028274 6.520605 -2.458615
2012-04-24 11:16:45 51°18.43 3°0.405 16.4364 1.046507 6.645504 -2.458615
2012-04-24 11:16:51 51°18.442 3°0.429 16.4698 1.03909 6.59489 -2.458615
2012-04-24 11:16:56 51°18.451 3°0.448 16.4504 1.010454 6.399203 -2.458615
2012-04-24 11:17:00 51°18.459 3°0.464 16.4232 1.010454 6.399203 -2.458615
2012-04-24 11:17:06 51°18.471 3°0.486 16.4073 1.030746 6.537973 -2.458615
2012-04-24 11:17:11 51°18.481 3°0.505 16.3703 1.041253 6.609564 -2.458615
2012-04-24 11:17:16 51°18.491 3°0.524 16.4044 1.049906 6.669135 -2.458615
2012-04-24 11:17:20 51°18.499 3°0.54 16.4298 1.04661 6.646695 -2.458615
2012-04-24 11:17:25 51°18.508 3°0.56 16.4193 1.041974 6.614858 -2.458615
2012-04-24 11:17:31 51°18.519 3°0.584 16.4271 1.041974 6.614858 -2.458615
2012-04-24 11:17:36 51°18.528 3°0.604 16.4184 1.061135 6.745912 -2.458615
2012-04-24 11:17:41 51°18.537 3°0.625 16.4281 1.000256 6.329685 -2.458615
2012-04-24 11:17:45 51°18.544 3°0.641 16.4249 1.039502 6.597708 -2.458615
2012-04-24 11:17:51 51°18.554 3°0.666 16.413 1.063195 6.759907 -2.458615
2012-04-24 11:17:56 51°18.563 3°0.687 16.4557 1.003758 6.354017 -2.458615
2012-04-24 11:18:00 51°18.569 3°0.704 16.406 1.003758 6.354017 -2.458615
2012-04-24 11:18:05 51°18.578 3°0.725 16.4312 1.086168 6.918007 -2.458615
2012-04-24 11:18:11 51°18.587 3°0.751 16.4364 1.037545 6.584806 -2.458615
2012-04-24 11:18:16 51°18.595 3°0.773 16.4327 1.064122 6.766879 -2.458615
2012-04-24 11:18:20 51°18.601 3°0.79 16.4404 1.022505 6.482157 -2.458615
2012-04-24 11:18:26 51°18.61 3°0.816 16.4497 1.020651 6.469379 -2.458615
2012-04-24 11:18:31 51°18.618 3°0.838 16.433 1.020651 6.469379 -2.458615
2012-04-24 11:18:36 51°18.626 3°0.86 16.4538 1.050215 6.671616 -2.458615
2012-04-24 11:18:40 51°18.633 3°0.877 16.4319 1.050421 6.672905 -2.458615
2012-04-24 11:18:45 51°18.641 3°0.899 16.4718 1.090083 6.945022 -2.458615
2012-04-24 11:18:51 51°18.65 3°0.925 16.3996 1.07257 6.824676 -2.458615
2012-04-24 11:18:56 51°18.658 3°0.947 16.4675 1.03054 6.537282 -2.458615
2012-04-24 11:19:00 51°18.664 3°0.964 16.4421 1.03054 6.537282 -2.458615
2012-04-24 11:19:05 51°18.672 3°0.986 16.4187 1.042386 6.61804 -2.458615
2012-04-24 11:19:11 51°18.682 3°1.011 16.4344 1.067419 6.789601 -2.458615
2012-04-24 11:19:16 51°18.69 3°1.033 16.4499 1.049288 6.665635 -2.458615
2012-04-24 11:19:20 51°18.697 3°1.051 16.4135 1.027656 6.517336 -2.458615
2012-04-24 11:19:25 51°18.705 3°1.072 16.4476 1.041665 6.613349 -2.458615
2012-04-24 11:19:31 51°18.715 3°1.098 16.4289 1.041665 6.613349 -2.458615
2012-04-24 11:19:36 51°18.724 3°1.119 16.4508 1.047125 6.650584 -2.458615
2012-04-24 11:19:40 51°18.73 3°1.136 16.4382 1.021166 6.472895 -2.458615
2012-04-24 11:19:46 51°18.741 3°1.162 16.4413 1.026729 6.511002 -2.458615
2012-04-24 11:19:51 51°18.749 3°1.183 16.4198 1.025287 6.500914 -2.458615
2012-04-24 11:19:56 51°18.757 3°1.204 16.4272 1.048567 6.659969 -2.458615
2012-04-24 11:20:00 51°18.764 3°1.221 16.4423 1.048567 6.659969 -2.458615
2012-04-24 11:20:06 51°18.774 3°1.247 16.461 1.060311 6.740635 -2.458615
2012-04-24 11:20:11 51°18.783 3°1.268 16.4156 1.036206 6.575529 -2.458615
2012-04-24 11:20:15 51°18.79 3°1.284 16.4744 1.050318 6.672321 -2.458615
2012-04-24 11:20:20 51°18.798 3°1.305 16.4618 1.036515 6.578123 -2.458615
2012-04-24 11:20:26 51°18.809 3°1.33 16.4671 1.040944 6.608416 -2.458615
2012-04-24 11:20:31 51°18.818 3°1.35 16.4656 1.040944 6.608416 -2.458615
2012-04-24 11:20:36 51°18.827 3°1.37 16.4628 1.002419 6.345469 -2.458615
2012-04-24 11:20:41 51°18.837 3°1.39 16.4747 1.059178 6.733855 -2.458615
2012-04-24 11:20:46 51°18.846 3°1.41 16.4027 1.007261 6.378243 -2.458615
2012-04-24 11:20:51 51°18.857 3°1.429 16.4761 1.051658 6.682344 -2.458615
2012-04-24 11:20:56 51°18.866 3°1.449 16.4266 1.075145 6.842844 -2.458615
2012-04-24 11:21:00 51°18.874 3°1.465 16.4252 1.075145 6.842844 -2.458615
2012-04-24 11:21:06 51°18.885 3°1.488 16.4282 1.028274 6.521797 -2.458615
2012-04-24 11:21:11 51°18.895 3°1.508 16.4595 1.057838 6.724065 -2.458615
2012-04-24 11:21:16 51°18.904 3°1.528 16.4114 1.037957 6.587985 -2.458615
2012-04-24 11:21:20 51°18.912 3°1.543 16.3938 1.066492 6.783493 -2.458615
2012-04-24 11:21:25 51°18.922 3°1.563 16.4042 1.06917 6.802356 -2.458615
2012-04-24 11:21:31 51°18.933 3°1.587 16.4303 1.06917 6.802356 -2.458615
2012-04-24 11:21:36 51°18.942 3°1.607 16.4444 1.051142 6.679062 -2.458615
2012-04-24 11:21:40 51°18.949 3°1.624 16.4579 1.050215 6.672714 -2.458615
2012-04-24 11:21:45 51°18.958 3°1.644 16.4708 1.063813 6.765874 -2.458615
2012-04-24 11:21:51 51°18.968 3°1.669 16.4794 1.037545 6.585648 -2.458615
2012-04-24 11:21:56 51°18.978 3°1.689 16.4284 0.956379 6.03198 -2.458615
2012-04-24 11:22:01 51°18.987 3°1.709 16.4303 0.956379 6.03198 -2.458615
2012-04-24 11:22:05 51°18.995 3°1.725 16.4606 1.070509 6.811167 -2.458615
2012-04-24 11:22:11 51°19.006 3°1.749 16.4265 1.030128 6.534228 -2.458615
2012-04-24 11:22:16 51°19.015 3°1.769 16.4614 1.001492 6.339035 -2.458615
2012-04-24 11:22:21 51°19.025 3°1.789 16.4133 1.019003 6.458009 -2.458615
2012-04-24 11:22:26 51°19.035 3°1.807 16.4729 0.999123 6.323467 -2.458615
2012-04-24 11:22:31 51°19.044 3°1.827 16.4302 0.999123 6.323467 -2.458615
2012-04-24 11:22:36 51°19.055 3°1.846 16.4372 1.04218 6.617235 -2.458615
2012-04-24 11:22:40 51°19.062 3°1.861 16.4555 0.994282 6.290828 -2.458615
2012-04-24 11:22:46 51°19.074 3°1.883 16.4502 1.028068 6.521462 -2.458615
2012-04-24 11:22:51 51°19.084 3°1.902 16.446 1.04867 6.662622 -2.458615
2012-04-24 11:22:56 51°19.095 3°1.921 16.448 0.999638 6.327555 -2.458615
2012-04-24 11:23:00 51°19.102 3°1.936 16.4325 0.999638 6.327555 -2.458615
2012-04-24 11:23:06 51°19.114 3°1.959 16.4623 1.055778 6.711056 -2.458615
2012-04-24 11:23:11 51°19.124 3°1.979 16.4324 1.019621 6.463409 -2.458615
2012-04-24 11:23:16 51°19.133 3°1.998 16.4196 1.022402 6.482164 -2.458615
2012-04-24 11:23:20 51°19.141 3°2.013 16.4218 1.087817 6.93034 -2.458615
2012-04-24 11:23:25 51°19.15 3°2.033 16.4476 1.018179 6.453681 -2.458615
2012-04-24 11:23:31 51°19.16 3°2.058 16.4305 1.018179 6.453681 -2.458615
2012-04-24 11:23:36 51°19.169 3°2.079 16.4728 1.073497 6.83241 -2.458615
2012-04-24 11:23:40 51°19.175 3°2.096 16.4537 1.009733 6.395805 -2.458615
2012-04-24 11:23:45 51°19.183 3°2.117 16.4633 1.015707 6.436923 -2.458615
2012-04-24 11:23:50 51°19.191 3°2.138 16.4393 1.058353 6.728701 -2.458615
2012-04-24 11:23:56 51°19.2 3°2.164 16.4659 1.032909 6.554793 -2.458615
2012-04-24 11:24:01 51°19.208 3°2.185 16.4588 1.032909 6.554793 -2.458615
2012-04-24 11:24:05 51°19.214 3°2.203 16.441 1.027759 6.519588 -2.458615
2012-04-24 11:24:11 51°19.223 3°2.228 16.4543 1.065874 6.780618 -2.458615
2012-04-24 11:24:16 51°19.23 3°2.25 16.4474 1.041356 6.612201 -2.458615
2012-04-24 11:24:20 51°19.236 3°2.268 16.4619 1.037854 6.588364 -2.458615
2012-04-24 11:24:25 51°19.243 3°2.289 16.4384 1.073188 6.830289 -2.458615
2012-04-24 11:24:31 51°19.252 3°2.316 16.4719 1.073188 6.830289 -2.458615
2012-04-24 11:24:36 51°19.259 3°2.338 16.4557 1.015604 6.43622 -2.458615
2012-04-24 11:24:40 51°19.264 3°2.356 16.4629 1.033836 6.561011 -2.458615
2012-04-24 11:24:46 51°19.272 3°2.383 16.4608 1.056911 6.719065 -2.458615
2012-04-24 11:24:51 51°19.278 3°2.406 16.4837 1.02096 6.473618 -2.458615
2012-04-24 11:24:55 51°19.283 3°2.424 16.4342 1.075145 6.84447 -2.458615
2012-04-24 11:25:00 51°19.289 3°2.447 16.4747 1.075145 6.84447 -2.458615
2012-04-24 11:25:06 51°19.297 3°2.474 16.4257 0.995724 6.301343 -2.458615
2012-04-24 11:25:11 51°19.303 3°2.497 16.4671 1.071849 6.8216 -2.458615
2012-04-24 11:25:16 51°19.309 3°2.52 16.4818 1.041253 6.61198 -2.458615
2012-04-24 11:25:20 51°19.314 3°2.538 16.4342 0.995827 6.301238 -2.458615
2012-04-24 11:25:26 51°19.323 3°2.565 16.458 1.041356 6.612564 -2.458615
2012-04-24 11:25:31 51°19.328 3°2.589 16.4789 1.041356 6.612564 -2.458615
2012-04-24 11:25:36 51°19.335 3°2.611 16.4625 1.033218 6.556546 -2.458615
2012-04-24 11:25:40 51°19.341 3°2.63 16.4672 1.0326 6.55244 -2.458615
2012-04-24 11:25:45 51°19.347 3°2.652 16.4678 1.052173 6.686849 -2.458615
2012-04-24 11:25:51 51°19.355 3°2.68 16.4464 1.034558 6.566422 -2.458615
2012-04-24 11:25:56 51°19.362 3°2.702 16.4758 1.008806 6.390882 -2.458615
2012-04-24 11:26:00 51°19.368 3°2.721 16.4429 1.008806 6.390882 -2.458615
2012-04-24 11:26:05 51°19.375 3°2.743 16.4734 1.063916 6.768188 -2.458615
2012-04-24 11:26:10 51°19.381 3°2.766 16.4759 1.044035 6.631861 -2.458615
2012-04-24 11:26:16 51°19.389 3°2.794 16.4776 1.021681 6.478543 -2.458615
2012-04-24 11:26:21 51°19.396 3°2.817 16.4553 1.059384 6.736252 -2.458615
2012-04-24 11:26:25 51°19.401 3°2.834 16.4815 1.039193 6.597765 -2.458615
2012-04-24 11:26:31 51°19.41 3°2.861 16.4857 1.039193 6.597765 -2.458615
2012-04-24 11:26:36 51°19.417 3°2.884 16.4358 1.026935 6.513719 -2.458615
2012-04-24 11:26:40 51°19.423 3°2.902 16.4673 1.063504 6.764497 -2.458615
2012-04-24 11:26:45 51°19.43 3°2.925 16.4844 1.03497 6.569479 -2.458615
2012-04-24 11:26:51 51°19.438 3°2.952 16.4726 1.05073 6.677705 -2.458615
2012-04-24 11:26:56 51°19.445 3°2.974 16.4787 1.033939 6.562675 -2.458615
2012-04-24 11:27:00 51°19.451 3°2.992 16.4544 1.033939 6.562675 -2.458615
2012-04-24 11:27:06 51°19.46 3°3.019 16.5024 1.052688 6.691233 -2.458615
2012-04-24 11:27:11 51°19.467 3°3.041 16.5185 1.032394 6.552349 -2.458615
2012-04-24 11:27:16 51°19.475 3°3.063 16.5206 0.993458 6.286133 -2.458615
2012-04-24 11:27:20 51°19.482 3°3.08 16.4769 1.002831 6.349554 -2.458615
2012-04-24 11:27:26 51°19.492 3°3.105 16.4743 1.054233 6.700839 -2.458615
2012-04-24 11:27:31 51°19.501 3°3.126 16.4815 1.054233 6.700839 -2.458615
2012-04-24 11:27:36 51°19.51 3°3.147 16.4598 1.011278 6.407048 -2.458615
2012-04-24 11:27:40 51°19.517 3°3.162 16.4846 1.028789 6.526866 -2.458615
2012-04-24 11:27:45 51°19.526 3°3.183 16.468 1.022918 6.48663 -2.458615
2012-04-24 11:27:51 51°19.538 3°3.206 16.4817 1.013441 6.422278 -2.458615
2012-04-24 11:27:56 51°19.547 3°3.226 16.4814 1.046404 6.647836 -2.458615
2012-04-24 11:28:00 51°19.554 3°3.242 16.4885 1.046404 6.647836 -2.458615
2012-04-24 11:28:05 51°19.564 3°3.262 16.4667 1.012411 6.415366 -2.458615
2012-04-24 11:28:11 51°19.575 3°3.286 16.4999 1.045683 6.643264 -2.458615
2012-04-24 11:28:16 51°19.584 3°3.306 16.4535 1.024257 6.496371 -2.458615
2012-04-24 11:28:20 51°19.592 3°3.322 16.5066 1.025287 6.503885 -2.458615
2012-04-24 11:28:25 51°19.601 3°3.342 16.4454 1.046816 6.650779 -2.458615
2012-04-24 11:28:31 51°19.612 3°3.366 16.4798 1.046816 6.650779 -2.458615
2012-04-24 11:28:36 51°19.621 3°3.386 16.4874 1.012308 6.415014 -2.458615
2012-04-24 11:28:40 51°19.629 3°3.402 16.4982 1.024154 6.496024 -2.458615
2012-04-24 11:28:46 51°19.639 3°3.426 16.4732 1.033218 6.557864 -2.458615
2012-04-24 11:28:51 51°19.648 3°3.446 16.5008 1.013029 6.42017 -2.458615
2012-04-24 11:28:56 51°19.657 3°3.467 16.4924 1.028995 6.529229 -2.458615
2012-04-24 11:29:00 51°19.664 3°3.483 16.4987 1.028995 6.529229 -2.458615
2012-04-24 11:29:05 51°19.673 3°3.503 16.4636 0.996342 6.306361 -2.458615
2012-04-24 11:29:11 51°19.684 3°3.528 16.4903 1.036515 6.580889 -2.458615
2012-04-24 11:29:16 51°19.692 3°3.548 16.4539 1.053924 6.699947 -2.458615
2012-04-24 11:29:20 51°19.699 3°3.564 16.4578 1.00417 6.35973 -2.458615
2012-04-24 11:29:26 51°19.71 3°3.589 16.4679 1.050318 6.675127 -2.458615
2012-04-24 11:29:31 51°19.719 3°3.61 16.4998 1.050318 6.675127 -2.458615
2012-04-24 11:29:36 51°19.727 3°3.631 16.4794 1.016943 6.446657 -2.458615
2012-04-24 11:29:41 51°19.735 3°3.651 16.4898 1.058766 6.733001 -2.458615
2012-04-24 11:29:46 51°19.744 3°3.673 16.4585 1.016531 6.443843 -2.458615
2012-04-24 11:29:51 51°19.752 3°3.693 16.4888 1.000565 6.335147 -2.458615
2012-04-24 11:29:56 51°19.76 3°3.715 16.4643 1.019518 6.464596 -2.458615
2012-04-24 11:30:00 51°19.767 3°3.732 16.4927 1.019518 6.464596 -2.458615
2012-04-24 11:30:06 51°19.776 3°3.758 16.495 1.028274 6.524539 -2.458615
2012-04-24 11:30:11 51°19.784 3°3.78 16.5046 1.016325 6.443144 -2.458615
2012-04-24 11:30:16 51°19.791 3°3.801 16.4799 1.032188 6.55154 -2.458615
2012-04-24 11:30:20 51°19.797 3°3.819 16.4875 1.028171 6.524193 -2.458615
2012-04-24 11:30:26 51°19.806 3°3.846 16.5017 1.010042 6.400252 -2.458615
2012-04-24 11:30:31 51°19.813 3°3.868 16.5052 1.010042 6.400252 -2.458615
2012-04-24 11:30:36 51°19.821 3°3.89 16.4992 1.044859 6.638109 -2.458615
2012-04-24 11:30:40 51°19.826 3°3.908 16.486 1.00963 6.396972 -2.458615
2012-04-24 11:30:45 51°19.834 3°3.929 16.4894 0.997578 6.314785 -2.458615
2012-04-24 11:30:51 51°19.843 3°3.956 16.4962 1.008291 6.387719 -2.458615
2012-04-24 11:30:56 51°19.85 3°3.978 16.5027 1.044138 6.63293 -2.458615
2012-04-24 11:31:01 51°19.858 3°4 16.4933 1.044138 6.63293 -2.458615
2012-04-24 11:31:05 51°19.864 3°4.018 16.4906 1.021578 6.478668 -2.458615
2012-04-24 11:31:11 51°19.873 3°4.044 16.5211 1.024772 6.500603 -2.458615
2012-04-24 11:31:16 51°19.881 3°4.066 16.5094 1.021269 6.476912 -2.458615
2012-04-24 11:31:20 51°19.887 3°4.083 16.4997 1.000874 6.337602 -2.458615
2012-04-24 11:31:25 51°19.895 3°4.104 16.5294 0.968532 6.117302 -2.458615
2012-04-24 11:31:31 51°19.905 3°4.13 16.5055 0.968532 6.117302 -2.458615
2012-04-24 11:31:36 51°19.914 3°4.151 16.5244 1.003655 6.356799 -2.458615
2012-04-24 11:31:40 51°19.92 3°4.167 16.4862 1.000256 6.333504 -2.458615
2012-04-24 11:31:46 51°19.931 3°4.192 16.4988 1.019312 6.463544 -2.458615
2012-04-24 11:31:51 51°19.939 3°4.213 16.4942 1.02539 6.505065 -2.458615
2012-04-24 11:31:56 51°19.948 3°4.234 16.5022 1.000359 6.334322 -2.458615
2012-04-24 11:32:00 51°19.955 3°4.251 16.5128 1.000359 6.334322 -2.458615
2012-04-24 11:32:06 51°19.965 3°4.276 16.5069 1.018179 6.455923 -2.458615
2012-04-24 11:32:11 51°19.974 3°4.297 16.5091 1.004479 6.36242 -2.458615
2012-04-24 11:32:16 51°19.982 3°4.318 16.4622 0.990574 6.267519 -2.458615
2012-04-24 11:32:20 51°19.989 3°4.335 16.4882 1.031776 6.548962 -2.458615
2012-04-24 11:32:25 51°19.998 3°4.356 16.4927 1.04115 6.613089 -2.458615
2012-04-24 11:32:31 51°20.007 3°4.382 16.4829 1.04115 6.613089 -2.458615
2012-04-24 11:32:36 51°20.015 3°4.403 16.4973 1.032085 6.550955 -2.458615
2012-04-24 11:32:40 51°20.022 3°4.421 16.5178 1.007673 6.384203 -2.458615
2012-04-24 11:32:45 51°20.029 3°4.443 16.5274 1.007673 6.384203 -2.458615
2012-04-24 11:32:51 51°20.038 3°4.469 16.5055 1.011175 6.407985 -2.458615
2012-04-24 11:32:56 51°20.046 3°4.491 16.4836 1.043004 6.62578 -2.458615
2012-04-24 11:33:00 51°20.052 3°4.508 16.4837 1.043004 6.62578 -2.458615
2012-04-24 11:33:05 51°20.059 3°4.531 16.5042 1.035794 6.576558 -2.458615
2012-04-24 11:33:11 51°20.067 3°4.557 16.5268 1.030952 6.543805 -2.458615
2012-04-24 11:33:16 51°20.075 3°4.58 16.5226 1.054439 6.704701 -2.458615
2012-04-24 11:33:21 51°20.082 3°4.602 16.4959 0.99902 6.325655 -2.458615
2012-04-24 11:33:25 51°20.088 3°4.62 16.5409 1.005922 6.372839 -2.458615
2012-04-24 11:33:31 51°20.096 3°4.647 16.5374 1.005922 6.372839 -2.458615
2012-04-24 11:33:36 51°20.104 3°4.668 16.5323 1.019724 6.466831 -2.458615
2012-04-24 11:33:41 51°20.112 3°4.69 16.5096 1.016325 6.443379 -2.458615
2012-04-24 11:33:45 51°20.118 3°4.707 16.5203 1.008497 6.389825 -2.458615
2012-04-24 11:33:51 51°20.129 3°4.733 16.5377 1.041871 6.617903 -2.458615
2012-04-24 11:33:56 51°20.138 3°4.753 16.5391 1.000565 6.335726 -2.458615
2012-04-24 11:34:01 51°20.147 3°4.774 16.5243 1.000565 6.335726 -2.458615
2012-04-24 11:34:05 51°20.154 3°4.79 16.538 1.004273 6.361131 -2.458615
2012-04-24 11:34:11 51°20.166 3°4.813 16.4487 0.990059 6.264125 -2.458615
2012-04-24 11:34:16 51°20.175 3°4.833 16.4452 0.976772 6.173787 -2.458615
2012-04-24 11:34:20 51°20.183 3°4.85 16.4298 1.850447 12.330885 -2.458615
2012-04-24 11:34:25 51°20.19 3°4.872 16.5208 1.106258 7.062543 -2.458615
2012-04-24 11:34:31 51°20.198 3°4.899 16.4891 1.106258 7.062543 -2.458615
2012-04-24 11:34:36 51°20.205 3°4.921 16.5336 1.114397 7.118735 -2.458615
2012-04-24 11:34:40 51°20.211 3°4.939 16.5426 1.124391 7.186968 -2.458615
2012-04-24 11:34:46 51°20.219 3°4.966 16.5099 1.027965 6.523977 -2.458615
2012-04-24 11:34:51 51°20.227 3°4.987 16.5308 1.065565 6.781475 -2.458615
2012-04-24 11:34:56 51°20.235 3°5.009 16.5072 1.035073 6.572226 -2.458615
2012-04-24 11:35:00 51°20.242 3°5.025 16.4726 1.035073 6.572226 -2.458615
2012-04-24 11:35:06 51°20.252 3°5.051 16.4727 1.084932 6.914194 -2.458615
2012-04-24 11:35:11 51°20.261 3°5.072 16.5098 1.100076 7.018579 -2.458615
2012-04-24 11:35:16 51°20.269 3°5.093 16.5365 1.081842 6.893591 -2.458615
2012-04-24 11:35:20 51°20.275 3°5.111 16.4916 1.072364 6.828005 -2.458615
2012-04-24 11:35:25 51°20.284 3°5.132 16.5008 1.084829 6.913992 -2.458615
2012-04-24 11:35:31 51°20.293 3°5.157 16.5232 1.084829 6.913992 -2.458615
2012-04-24 11:35:36 51°20.302 3°5.179 16.5372 1.109658 7.084919 -2.458615
2012-04-24 11:35:40 51°20.308 3°5.196 16.5374 1.067625 6.795859 -2.458615
2012-04-24 11:35:46 51°20.319 3°5.221 16.5352 1.065565 6.781847 -2.458615
2012-04-24 11:35:51 51°20.328 3°5.241 16.4919 1.036721 6.583502 -2.458615
2012-04-24 11:35:56 51°20.337 3°5.261 16.5067 1.075145 6.84735 -2.458615
2012-04-24 11:36:00 51°20.344 3°5.278 16.5016 1.075145 6.84735 -2.458615
2012-04-24 11:36:06 51°20.356 3°5.302 16.4969 1.085138 6.915736 -2.458615
2012-04-24 11:36:11 51°20.365 3°5.322 16.508 1.038369 6.595021 -2.458615
2012-04-24 11:36:16 51°20.375 3°5.342 16.4846 1.065977 6.784426 -2.458615
2012-04-24 11:36:21 51°20.384 3°5.362 16.4606 1.084108 6.909036 -2.458615
2012-04-24 11:36:25 51°20.392 3°5.378 16.5004 1.04558 6.644746 -2.458615
2012-04-24 11:36:31 51°20.403 3°5.403 16.5067 1.04558 6.644746 -2.458615
2012-04-24 11:36:36 51°20.411 3°5.424 16.5081 1.073291 6.83512 -2.458615
2012-04-24 11:36:40 51°20.418 3°5.44 16.5174 1.061135 6.751588 -2.458615
2012-04-24 11:36:45 51°20.427 3°5.461 16.5124 1.041562 6.617482 -2.458615
2012-04-24 11:36:51 51°20.437 3°5.487 16.5155 1.085962 6.922159 -2.458615
2012-04-24 11:36:56 51°20.446 3°5.508 16.5251 1.028789 6.529851 -2.458615
2012-04-24 11:37:00 51°20.452 3°5.525 16.5042 1.028789 6.529851 -2.458615
2012-04-24 11:37:05 51°20.461 3°5.546 16.5256 1.058663 6.734635 -2.458615
2012-04-24 11:37:11 51°20.47 3°5.572 16.504 1.069067 6.806128 -2.458615
2012-04-24 11:37:16 51°20.478 3°5.595 16.5096 1.048155 6.662871 -2.458615
2012-04-24 11:37:20 51°20.484 3°5.612 16.4854 1.059487 6.740532 -2.458615
2012-04-24 11:37:25 51°20.492 3°5.634 16.5248 1.045786 6.646279 -2.458615